<?xml version="1.0" encoding="UTF-8" standalone="no" ?>
<gpx xmlns="http://www.topografix.com/GPX/1/1" xmlns:xsi="http://www.w3.org/2001/XMLSchema-instance" xsi:schemaLocation="http://www.topografix.com/GPX/1/1 http://www.topografix.com/GPX/1/1/gpx.xsd" version="1.1" creator="VisuGPX - https://www.visugpx.com">
  <metadata>
    <name>83-M-St Antonin du Var</name>
    <desc><![CDATA[83-M-St Antonin du Var : entre Salgues et Ste Foy]]></desc>
  </metadata>
  <trk>
    <name><![CDATA[2019-03-27-M-Saint Antonin-Salgues]]></name>
    <trkseg>
      <trkpt lat="43.51715" lon="6.32669">
        <ele>322.8</ele>
        <time>2019-03-27T12:53:08Z</time>
      </trkpt>
      <trkpt lat="43.51719" lon="6.32657">
        <ele>322.8</ele>
        <time>2019-03-27T12:53:14Z</time>
      </trkpt>
      <trkpt lat="43.51724" lon="6.32644">
        <ele>322.6</ele>
        <time>2019-03-27T12:53:21Z</time>
      </trkpt>
      <trkpt lat="43.51727" lon="6.32632">
        <ele>322.8</ele>
        <time>2019-03-27T12:53:27Z</time>
      </trkpt>
      <trkpt lat="43.51731" lon="6.32619">
        <ele>322.9</ele>
        <time>2019-03-27T12:53:33Z</time>
      </trkpt>
      <trkpt lat="43.51736" lon="6.32606">
        <ele>323.1</ele>
        <time>2019-03-27T12:53:39Z</time>
      </trkpt>
      <trkpt lat="43.51741" lon="6.32593">
        <ele>323.3</ele>
        <time>2019-03-27T12:53:44Z</time>
      </trkpt>
      <trkpt lat="43.51745" lon="6.3258">
        <ele>323.4</ele>
        <time>2019-03-27T12:53:49Z</time>
      </trkpt>
      <trkpt lat="43.51749" lon="6.32568">
        <ele>323.5</ele>
        <time>2019-03-27T12:53:54Z</time>
      </trkpt>
      <trkpt lat="43.51753" lon="6.32556">
        <ele>323.6</ele>
        <time>2019-03-27T12:54:02Z</time>
      </trkpt>
      <trkpt lat="43.51752" lon="6.32544">
        <ele>323.7</ele>
        <time>2019-03-27T12:54:10Z</time>
      </trkpt>
      <trkpt lat="43.51751" lon="6.3253">
        <ele>324.3</ele>
        <time>2019-03-27T12:54:18Z</time>
      </trkpt>
      <trkpt lat="43.5175" lon="6.32517">
        <ele>324.8</ele>
        <time>2019-03-27T12:54:25Z</time>
      </trkpt>
      <trkpt lat="43.51748" lon="6.32504">
        <ele>325.6</ele>
        <time>2019-03-27T12:54:34Z</time>
      </trkpt>
      <trkpt lat="43.51745" lon="6.32492">
        <ele>326.1</ele>
        <time>2019-03-27T12:54:41Z</time>
      </trkpt>
      <trkpt lat="43.51741" lon="6.32479">
        <ele>326.4</ele>
        <time>2019-03-27T12:54:49Z</time>
      </trkpt>
      <trkpt lat="43.5174" lon="6.32466">
        <ele>326.4</ele>
        <time>2019-03-27T12:54:56Z</time>
      </trkpt>
      <trkpt lat="43.51747" lon="6.32456">
        <ele>326.3</ele>
        <time>2019-03-27T12:55:02Z</time>
      </trkpt>
      <trkpt lat="43.5175" lon="6.32444">
        <ele>326.3</ele>
        <time>2019-03-27T12:55:07Z</time>
      </trkpt>
      <trkpt lat="43.51751" lon="6.32431">
        <ele>326.2</ele>
        <time>2019-03-27T12:55:12Z</time>
      </trkpt>
      <trkpt lat="43.51752" lon="6.32418">
        <ele>326.1</ele>
        <time>2019-03-27T12:55:19Z</time>
      </trkpt>
      <trkpt lat="43.51755" lon="6.32406">
        <ele>326</ele>
        <time>2019-03-27T12:55:26Z</time>
      </trkpt>
      <trkpt lat="43.51761" lon="6.32397">
        <ele>325.5</ele>
        <time>2019-03-27T12:55:33Z</time>
      </trkpt>
      <trkpt lat="43.5177" lon="6.32392">
        <ele>325.1</ele>
        <time>2019-03-27T12:55:38Z</time>
      </trkpt>
      <trkpt lat="43.5178" lon="6.32387">
        <ele>324.7</ele>
        <time>2019-03-27T12:55:45Z</time>
      </trkpt>
      <trkpt lat="43.51777" lon="6.32375">
        <ele>324.5</ele>
        <time>2019-03-27T12:55:50Z</time>
      </trkpt>
      <trkpt lat="43.51776" lon="6.32363">
        <ele>324.2</ele>
        <time>2019-03-27T12:55:57Z</time>
      </trkpt>
      <trkpt lat="43.51775" lon="6.3235">
        <ele>324.1</ele>
        <time>2019-03-27T12:56:02Z</time>
      </trkpt>
      <trkpt lat="43.51773" lon="6.32337">
        <ele>324</ele>
        <time>2019-03-27T12:56:08Z</time>
      </trkpt>
      <trkpt lat="43.51762" lon="6.32334">
        <ele>324</ele>
        <time>2019-03-27T12:56:14Z</time>
      </trkpt>
      <trkpt lat="43.51753" lon="6.32331">
        <ele>324</ele>
        <time>2019-03-27T12:56:19Z</time>
      </trkpt>
      <trkpt lat="43.51745" lon="6.32324">
        <ele>323.7</ele>
        <time>2019-03-27T12:56:25Z</time>
      </trkpt>
      <trkpt lat="43.51737" lon="6.32319">
        <ele>323.3</ele>
        <time>2019-03-27T12:56:32Z</time>
      </trkpt>
      <trkpt lat="43.51729" lon="6.32309">
        <ele>322.8</ele>
        <time>2019-03-27T12:56:40Z</time>
      </trkpt>
      <trkpt lat="43.51722" lon="6.323">
        <ele>322.4</ele>
        <time>2019-03-27T12:56:48Z</time>
      </trkpt>
      <trkpt lat="43.51714" lon="6.32293">
        <ele>321.9</ele>
        <time>2019-03-27T12:56:56Z</time>
      </trkpt>
      <trkpt lat="43.51707" lon="6.32284">
        <ele>321.2</ele>
        <time>2019-03-27T12:57:03Z</time>
      </trkpt>
      <trkpt lat="43.51706" lon="6.32271">
        <ele>320.2</ele>
        <time>2019-03-27T12:57:14Z</time>
      </trkpt>
      <trkpt lat="43.51701" lon="6.3226">
        <ele>319.2</ele>
        <time>2019-03-27T12:57:26Z</time>
      </trkpt>
      <trkpt lat="43.51695" lon="6.32248">
        <ele>318.4</ele>
        <time>2019-03-27T12:57:34Z</time>
      </trkpt>
      <trkpt lat="43.51691" lon="6.32237">
        <ele>317.9</ele>
        <time>2019-03-27T12:57:41Z</time>
      </trkpt>
      <trkpt lat="43.51686" lon="6.32226">
        <ele>317.4</ele>
        <time>2019-03-27T12:57:47Z</time>
      </trkpt>
      <trkpt lat="43.51686" lon="6.32213">
        <ele>317</ele>
        <time>2019-03-27T12:57:52Z</time>
      </trkpt>
      <trkpt lat="43.51683" lon="6.32199">
        <ele>316.5</ele>
        <time>2019-03-27T12:58:00Z</time>
      </trkpt>
      <trkpt lat="43.51683" lon="6.32186">
        <ele>316.2</ele>
        <time>2019-03-27T12:58:08Z</time>
      </trkpt>
      <trkpt lat="43.51683" lon="6.32171">
        <ele>315.8</ele>
        <time>2019-03-27T12:58:15Z</time>
      </trkpt>
      <trkpt lat="43.5168" lon="6.32157">
        <ele>315.4</ele>
        <time>2019-03-27T12:58:22Z</time>
      </trkpt>
      <trkpt lat="43.51683" lon="6.32144">
        <ele>314.9</ele>
        <time>2019-03-27T12:58:30Z</time>
      </trkpt>
      <trkpt lat="43.51686" lon="6.32131">
        <ele>314.6</ele>
        <time>2019-03-27T12:58:37Z</time>
      </trkpt>
      <trkpt lat="43.51687" lon="6.32118">
        <ele>314.3</ele>
        <time>2019-03-27T12:58:45Z</time>
      </trkpt>
      <trkpt lat="43.51689" lon="6.32105">
        <ele>314.1</ele>
        <time>2019-03-27T12:58:52Z</time>
      </trkpt>
      <trkpt lat="43.5169" lon="6.32092">
        <ele>313.7</ele>
        <time>2019-03-27T12:59:00Z</time>
      </trkpt>
      <trkpt lat="43.51693" lon="6.3208">
        <ele>313.2</ele>
        <time>2019-03-27T12:59:07Z</time>
      </trkpt>
      <trkpt lat="43.51694" lon="6.32066">
        <ele>312.7</ele>
        <time>2019-03-27T12:59:17Z</time>
      </trkpt>
      <trkpt lat="43.51693" lon="6.32053">
        <ele>311.8</ele>
        <time>2019-03-27T12:59:25Z</time>
      </trkpt>
      <trkpt lat="43.51693" lon="6.32039">
        <ele>310.9</ele>
        <time>2019-03-27T12:59:34Z</time>
      </trkpt>
      <trkpt lat="43.51696" lon="6.32027">
        <ele>310</ele>
        <time>2019-03-27T12:59:43Z</time>
      </trkpt>
      <trkpt lat="43.51703" lon="6.32018">
        <ele>309.3</ele>
        <time>2019-03-27T12:59:52Z</time>
      </trkpt>
      <trkpt lat="43.51707" lon="6.32006">
        <ele>308.1</ele>
        <time>2019-03-27T13:00:04Z</time>
      </trkpt>
      <trkpt lat="43.51713" lon="6.31997">
        <ele>306.2</ele>
        <time>2019-03-27T13:00:20Z</time>
      </trkpt>
      <trkpt lat="43.51721" lon="6.31989">
        <ele>304.8</ele>
        <time>2019-03-27T13:00:31Z</time>
      </trkpt>
      <trkpt lat="43.5173" lon="6.31985">
        <ele>303.7</ele>
        <time>2019-03-27T13:00:39Z</time>
      </trkpt>
      <trkpt lat="43.51738" lon="6.31979">
        <ele>302.1</ele>
        <time>2019-03-27T13:00:54Z</time>
      </trkpt>
      <trkpt lat="43.51744" lon="6.31969">
        <ele>300.9</ele>
        <time>2019-03-27T13:01:06Z</time>
      </trkpt>
      <trkpt lat="43.51748" lon="6.31958">
        <ele>299.8</ele>
        <time>2019-03-27T13:01:16Z</time>
      </trkpt>
      <trkpt lat="43.51751" lon="6.31945">
        <ele>298.9</ele>
        <time>2019-03-27T13:01:25Z</time>
      </trkpt>
      <trkpt lat="43.51756" lon="6.31932">
        <ele>297.8</ele>
        <time>2019-03-27T13:01:34Z</time>
      </trkpt>
      <trkpt lat="43.51762" lon="6.31922">
        <ele>297</ele>
        <time>2019-03-27T13:01:44Z</time>
      </trkpt>
      <trkpt lat="43.51764" lon="6.31909">
        <ele>296.4</ele>
        <time>2019-03-27T13:01:56Z</time>
      </trkpt>
      <trkpt lat="43.51767" lon="6.31896">
        <ele>296.1</ele>
        <time>2019-03-27T13:02:06Z</time>
      </trkpt>
      <trkpt lat="43.51768" lon="6.31883">
        <ele>296</ele>
        <time>2019-03-27T13:02:16Z</time>
      </trkpt>
      <trkpt lat="43.5177" lon="6.3187">
        <ele>295.9</ele>
        <time>2019-03-27T13:02:29Z</time>
      </trkpt>
      <trkpt lat="43.51775" lon="6.31858">
        <ele>295.9</ele>
        <time>2019-03-27T13:02:37Z</time>
      </trkpt>
      <trkpt lat="43.5178" lon="6.31848">
        <ele>295.7</ele>
        <time>2019-03-27T13:02:45Z</time>
      </trkpt>
      <trkpt lat="43.51781" lon="6.31836">
        <ele>295.3</ele>
        <time>2019-03-27T13:02:54Z</time>
      </trkpt>
      <trkpt lat="43.51782" lon="6.31822">
        <ele>294.9</ele>
        <time>2019-03-27T13:03:04Z</time>
      </trkpt>
      <trkpt lat="43.51774" lon="6.31814">
        <ele>294.4</ele>
        <time>2019-03-27T13:03:17Z</time>
      </trkpt>
      <trkpt lat="43.51756" lon="6.31728">
        <ele>293</ele>
        <time>2019-03-27T13:03:50Z</time>
      </trkpt>
      <trkpt lat="43.5177" lon="6.31712">
        <ele>292</ele>
        <time>2019-03-27T13:05:36Z</time>
      </trkpt>
      <trkpt lat="43.51775" lon="6.31701">
        <ele>292.9</ele>
        <time>2019-03-27T13:05:41Z</time>
      </trkpt>
      <trkpt lat="43.51785" lon="6.31699">
        <ele>292.9</ele>
        <time>2019-03-27T13:05:53Z</time>
      </trkpt>
      <trkpt lat="43.51794" lon="6.31698">
        <ele>292.9</ele>
        <time>2019-03-27T13:06:01Z</time>
      </trkpt>
      <trkpt lat="43.5179" lon="6.31686">
        <ele>292.9</ele>
        <time>2019-03-27T13:06:26Z</time>
      </trkpt>
      <trkpt lat="43.51796" lon="6.31677">
        <ele>293.7</ele>
        <time>2019-03-27T13:06:51Z</time>
      </trkpt>
      <trkpt lat="43.51806" lon="6.31677">
        <ele>294.6</ele>
        <time>2019-03-27T13:07:09Z</time>
      </trkpt>
      <trkpt lat="43.51815" lon="6.31678">
        <ele>295.3</ele>
        <time>2019-03-27T13:07:19Z</time>
      </trkpt>
      <trkpt lat="43.51825" lon="6.31684">
        <ele>297.2</ele>
        <time>2019-03-27T13:07:42Z</time>
      </trkpt>
      <trkpt lat="43.51834" lon="6.31686">
        <ele>298.9</ele>
        <time>2019-03-27T13:07:53Z</time>
      </trkpt>
      <trkpt lat="43.51841" lon="6.31676">
        <ele>299.9</ele>
        <time>2019-03-27T13:08:05Z</time>
      </trkpt>
      <trkpt lat="43.51847" lon="6.31665">
        <ele>300.1</ele>
        <time>2019-03-27T13:08:14Z</time>
      </trkpt>
      <trkpt lat="43.51854" lon="6.31657">
        <ele>300.3</ele>
        <time>2019-03-27T13:08:24Z</time>
      </trkpt>
      <trkpt lat="43.51861" lon="6.3165">
        <ele>300.6</ele>
        <time>2019-03-27T13:08:36Z</time>
      </trkpt>
      <trkpt lat="43.51865" lon="6.31636">
        <ele>302.2</ele>
        <time>2019-03-27T13:08:53Z</time>
      </trkpt>
      <trkpt lat="43.5187" lon="6.31625">
        <ele>304</ele>
        <time>2019-03-27T13:09:05Z</time>
      </trkpt>
      <trkpt lat="43.51877" lon="6.31617">
        <ele>305.6</ele>
        <time>2019-03-27T13:09:16Z</time>
      </trkpt>
      <trkpt lat="43.51881" lon="6.31605">
        <ele>307.9</ele>
        <time>2019-03-27T13:09:31Z</time>
      </trkpt>
      <trkpt lat="43.51888" lon="6.31597">
        <ele>310.2</ele>
        <time>2019-03-27T13:09:50Z</time>
      </trkpt>
      <trkpt lat="43.51894" lon="6.31588">
        <ele>312.8</ele>
        <time>2019-03-27T13:10:06Z</time>
      </trkpt>
      <trkpt lat="43.51902" lon="6.3158">
        <ele>314.3</ele>
        <time>2019-03-27T13:10:17Z</time>
      </trkpt>
      <trkpt lat="43.51908" lon="6.31569">
        <ele>315.7</ele>
        <time>2019-03-27T13:10:29Z</time>
      </trkpt>
      <trkpt lat="43.5191" lon="6.31557">
        <ele>316.7</ele>
        <time>2019-03-27T13:10:40Z</time>
      </trkpt>
      <trkpt lat="43.51911" lon="6.31544">
        <ele>317.2</ele>
        <time>2019-03-27T13:10:51Z</time>
      </trkpt>
      <trkpt lat="43.51914" lon="6.31531">
        <ele>317.6</ele>
        <time>2019-03-27T13:11:34Z</time>
      </trkpt>
      <trkpt lat="43.51917" lon="6.31519">
        <ele>317.6</ele>
        <time>2019-03-27T13:11:46Z</time>
      </trkpt>
      <trkpt lat="43.51919" lon="6.31507">
        <ele>317.6</ele>
        <time>2019-03-27T13:11:57Z</time>
      </trkpt>
      <trkpt lat="43.51922" lon="6.31495">
        <ele>317.6</ele>
        <time>2019-03-27T13:12:11Z</time>
      </trkpt>
      <trkpt lat="43.51928" lon="6.31484">
        <ele>317.5</ele>
        <time>2019-03-27T13:12:21Z</time>
      </trkpt>
      <trkpt lat="43.51931" lon="6.31472">
        <ele>317.3</ele>
        <time>2019-03-27T13:12:29Z</time>
      </trkpt>
      <trkpt lat="43.51936" lon="6.3146">
        <ele>316.8</ele>
        <time>2019-03-27T13:12:38Z</time>
      </trkpt>
      <trkpt lat="43.51944" lon="6.31468">
        <ele>316.6</ele>
        <time>2019-03-27T13:12:56Z</time>
      </trkpt>
      <trkpt lat="43.51947" lon="6.3148">
        <ele>316.8</ele>
        <time>2019-03-27T13:13:05Z</time>
      </trkpt>
      <trkpt lat="43.5195" lon="6.31493">
        <ele>317.6</ele>
        <time>2019-03-27T13:13:16Z</time>
      </trkpt>
      <trkpt lat="43.51957" lon="6.31503">
        <ele>318.1</ele>
        <time>2019-03-27T13:13:25Z</time>
      </trkpt>
      <trkpt lat="43.51964" lon="6.31511">
        <ele>318.3</ele>
        <time>2019-03-27T13:13:34Z</time>
      </trkpt>
      <trkpt lat="43.51971" lon="6.3152">
        <ele>318.4</ele>
        <time>2019-03-27T13:13:44Z</time>
      </trkpt>
      <trkpt lat="43.51979" lon="6.31526">
        <ele>318.2</ele>
        <time>2019-03-27T13:13:53Z</time>
      </trkpt>
      <trkpt lat="43.51984" lon="6.31536">
        <ele>318.1</ele>
        <time>2019-03-27T13:14:02Z</time>
      </trkpt>
      <trkpt lat="43.5199" lon="6.31547">
        <ele>317.9</ele>
        <time>2019-03-27T13:14:11Z</time>
      </trkpt>
      <trkpt lat="43.51999" lon="6.31552">
        <ele>317.7</ele>
        <time>2019-03-27T13:14:20Z</time>
      </trkpt>
      <trkpt lat="43.52009" lon="6.31554">
        <ele>317.5</ele>
        <time>2019-03-27T13:14:30Z</time>
      </trkpt>
      <trkpt lat="43.52017" lon="6.31559">
        <ele>317.3</ele>
        <time>2019-03-27T13:14:38Z</time>
      </trkpt>
      <trkpt lat="43.52026" lon="6.31566">
        <ele>317.1</ele>
        <time>2019-03-27T13:14:47Z</time>
      </trkpt>
      <trkpt lat="43.52035" lon="6.31568">
        <ele>316.9</ele>
        <time>2019-03-27T13:14:56Z</time>
      </trkpt>
      <trkpt lat="43.52045" lon="6.31568">
        <ele>316.7</ele>
        <time>2019-03-27T13:15:05Z</time>
      </trkpt>
      <trkpt lat="43.52053" lon="6.31563">
        <ele>316.2</ele>
        <time>2019-03-27T13:15:17Z</time>
      </trkpt>
      <trkpt lat="43.52061" lon="6.31556">
        <ele>315.5</ele>
        <time>2019-03-27T13:15:26Z</time>
      </trkpt>
      <trkpt lat="43.52067" lon="6.31545">
        <ele>314.7</ele>
        <time>2019-03-27T13:15:35Z</time>
      </trkpt>
      <trkpt lat="43.52074" lon="6.31535">
        <ele>314.2</ele>
        <time>2019-03-27T13:15:43Z</time>
      </trkpt>
      <trkpt lat="43.52078" lon="6.31523">
        <ele>313.9</ele>
        <time>2019-03-27T13:15:52Z</time>
      </trkpt>
      <trkpt lat="43.52079" lon="6.31511">
        <ele>313.7</ele>
        <time>2019-03-27T13:16:00Z</time>
      </trkpt>
      <trkpt lat="43.52081" lon="6.31498">
        <ele>314.1</ele>
        <time>2019-03-27T13:16:12Z</time>
      </trkpt>
      <trkpt lat="43.5208" lon="6.31484">
        <ele>314.3</ele>
        <time>2019-03-27T13:16:22Z</time>
      </trkpt>
      <trkpt lat="43.52082" lon="6.31471">
        <ele>314.5</ele>
        <time>2019-03-27T13:16:32Z</time>
      </trkpt>
      <trkpt lat="43.52085" lon="6.31458">
        <ele>314.4</ele>
        <time>2019-03-27T13:16:38Z</time>
      </trkpt>
      <trkpt lat="43.52088" lon="6.31446">
        <ele>314.4</ele>
        <time>2019-03-27T13:16:46Z</time>
      </trkpt>
      <trkpt lat="43.52093" lon="6.31435">
        <ele>314.5</ele>
        <time>2019-03-27T13:16:55Z</time>
      </trkpt>
      <trkpt lat="43.52096" lon="6.31423">
        <ele>314.5</ele>
        <time>2019-03-27T13:17:03Z</time>
      </trkpt>
      <trkpt lat="43.52102" lon="6.31413">
        <ele>314.5</ele>
        <time>2019-03-27T13:17:10Z</time>
      </trkpt>
      <trkpt lat="43.52111" lon="6.31408">
        <ele>314.6</ele>
        <time>2019-03-27T13:17:19Z</time>
      </trkpt>
      <trkpt lat="43.52119" lon="6.31401">
        <ele>314.6</ele>
        <time>2019-03-27T13:17:29Z</time>
      </trkpt>
      <trkpt lat="43.52129" lon="6.31398">
        <ele>314.6</ele>
        <time>2019-03-27T13:17:37Z</time>
      </trkpt>
      <trkpt lat="43.52139" lon="6.31396">
        <ele>314.5</ele>
        <time>2019-03-27T13:17:46Z</time>
      </trkpt>
      <trkpt lat="43.52148" lon="6.31392">
        <ele>314.2</ele>
        <time>2019-03-27T13:17:55Z</time>
      </trkpt>
      <trkpt lat="43.52155" lon="6.31384">
        <ele>314</ele>
        <time>2019-03-27T13:18:03Z</time>
      </trkpt>
      <trkpt lat="43.52158" lon="6.31372">
        <ele>313.1</ele>
        <time>2019-03-27T13:18:34Z</time>
      </trkpt>
      <trkpt lat="43.52155" lon="6.3136">
        <ele>313.2</ele>
        <time>2019-03-27T13:18:42Z</time>
      </trkpt>
      <trkpt lat="43.52145" lon="6.31356">
        <ele>313.2</ele>
        <time>2019-03-27T13:18:55Z</time>
      </trkpt>
      <trkpt lat="43.52136" lon="6.31354">
        <ele>313.1</ele>
        <time>2019-03-27T13:19:07Z</time>
      </trkpt>
      <trkpt lat="43.5213" lon="6.31344">
        <ele>310.9</ele>
        <time>2019-03-27T13:20:46Z</time>
      </trkpt>
      <trkpt lat="43.52121" lon="6.31348">
        <ele>310.9</ele>
        <time>2019-03-27T13:21:00Z</time>
      </trkpt>
      <trkpt lat="43.52114" lon="6.31341">
        <ele>310.7</ele>
        <time>2019-03-27T13:21:19Z</time>
      </trkpt>
      <trkpt lat="43.5211" lon="6.31328">
        <ele>310.4</ele>
        <time>2019-03-27T13:21:28Z</time>
      </trkpt>
      <trkpt lat="43.52107" lon="6.31316">
        <ele>310.2</ele>
        <time>2019-03-27T13:21:35Z</time>
      </trkpt>
      <trkpt lat="43.52105" lon="6.31328">
        <ele>309.9</ele>
        <time>2019-03-27T13:22:05Z</time>
      </trkpt>
      <trkpt lat="43.52098" lon="6.31318">
        <ele>309.8</ele>
        <time>2019-03-27T13:22:16Z</time>
      </trkpt>
      <trkpt lat="43.52092" lon="6.31309">
        <ele>309.6</ele>
        <time>2019-03-27T13:22:24Z</time>
      </trkpt>
      <trkpt lat="43.52083" lon="6.31301">
        <ele>309.8</ele>
        <time>2019-03-27T13:22:34Z</time>
      </trkpt>
      <trkpt lat="43.52077" lon="6.31292">
        <ele>309.7</ele>
        <time>2019-03-27T13:22:41Z</time>
      </trkpt>
      <trkpt lat="43.52072" lon="6.3128">
        <ele>309.5</ele>
        <time>2019-03-27T13:22:48Z</time>
      </trkpt>
      <trkpt lat="43.52068" lon="6.31268">
        <ele>309.4</ele>
        <time>2019-03-27T13:22:55Z</time>
      </trkpt>
      <trkpt lat="43.52066" lon="6.31255">
        <ele>309.2</ele>
        <time>2019-03-27T13:23:02Z</time>
      </trkpt>
      <trkpt lat="43.52065" lon="6.31242">
        <ele>308.6</ele>
        <time>2019-03-27T13:23:09Z</time>
      </trkpt>
      <trkpt lat="43.52062" lon="6.31229">
        <ele>308.3</ele>
        <time>2019-03-27T13:23:14Z</time>
      </trkpt>
      <trkpt lat="43.52062" lon="6.31216">
        <ele>308.4</ele>
        <time>2019-03-27T13:23:23Z</time>
      </trkpt>
      <trkpt lat="43.5206" lon="6.31204">
        <ele>308.3</ele>
        <time>2019-03-27T13:23:30Z</time>
      </trkpt>
      <trkpt lat="43.52059" lon="6.3119">
        <ele>308.1</ele>
        <time>2019-03-27T13:23:37Z</time>
      </trkpt>
      <trkpt lat="43.52066" lon="6.3118">
        <ele>308</ele>
        <time>2019-03-27T13:23:46Z</time>
      </trkpt>
      <trkpt lat="43.52074" lon="6.31172">
        <ele>308</ele>
        <time>2019-03-27T13:23:52Z</time>
      </trkpt>
      <trkpt lat="43.52077" lon="6.3116">
        <ele>308.5</ele>
        <time>2019-03-27T13:23:59Z</time>
      </trkpt>
      <trkpt lat="43.52083" lon="6.3115">
        <ele>308.5</ele>
        <time>2019-03-27T13:24:07Z</time>
      </trkpt>
      <trkpt lat="43.52092" lon="6.31144">
        <ele>308.7</ele>
        <time>2019-03-27T13:24:16Z</time>
      </trkpt>
      <trkpt lat="43.52099" lon="6.31136">
        <ele>309.5</ele>
        <time>2019-03-27T13:24:25Z</time>
      </trkpt>
      <trkpt lat="43.52109" lon="6.31131">
        <ele>310.1</ele>
        <time>2019-03-27T13:24:33Z</time>
      </trkpt>
      <trkpt lat="43.52117" lon="6.31125">
        <ele>310.5</ele>
        <time>2019-03-27T13:24:41Z</time>
      </trkpt>
      <trkpt lat="43.52125" lon="6.31117">
        <ele>311.4</ele>
        <time>2019-03-27T13:24:50Z</time>
      </trkpt>
      <trkpt lat="43.52133" lon="6.3111">
        <ele>311.8</ele>
        <time>2019-03-27T13:24:57Z</time>
      </trkpt>
      <trkpt lat="43.52141" lon="6.31101">
        <ele>312.2</ele>
        <time>2019-03-27T13:25:05Z</time>
      </trkpt>
      <trkpt lat="43.52149" lon="6.31093">
        <ele>312.3</ele>
        <time>2019-03-27T13:25:14Z</time>
      </trkpt>
      <trkpt lat="43.52157" lon="6.31086">
        <ele>312.3</ele>
        <time>2019-03-27T13:25:21Z</time>
      </trkpt>
      <trkpt lat="43.52162" lon="6.31075">
        <ele>312.2</ele>
        <time>2019-03-27T13:25:29Z</time>
      </trkpt>
      <trkpt lat="43.52168" lon="6.31065">
        <ele>312</ele>
        <time>2019-03-27T13:25:36Z</time>
      </trkpt>
      <trkpt lat="43.52174" lon="6.31055">
        <ele>312</ele>
        <time>2019-03-27T13:25:44Z</time>
      </trkpt>
      <trkpt lat="43.52179" lon="6.31044">
        <ele>312.1</ele>
        <time>2019-03-27T13:25:51Z</time>
      </trkpt>
      <trkpt lat="43.52183" lon="6.31033">
        <ele>312</ele>
        <time>2019-03-27T13:25:58Z</time>
      </trkpt>
      <trkpt lat="43.52189" lon="6.31022">
        <ele>312</ele>
        <time>2019-03-27T13:26:06Z</time>
      </trkpt>
      <trkpt lat="43.52195" lon="6.31011">
        <ele>311.8</ele>
        <time>2019-03-27T13:26:13Z</time>
      </trkpt>
      <trkpt lat="43.52201" lon="6.31002">
        <ele>311.7</ele>
        <time>2019-03-27T13:26:20Z</time>
      </trkpt>
      <trkpt lat="43.52209" lon="6.30992">
        <ele>311.9</ele>
        <time>2019-03-27T13:26:27Z</time>
      </trkpt>
      <trkpt lat="43.52214" lon="6.30982">
        <ele>312.1</ele>
        <time>2019-03-27T13:26:35Z</time>
      </trkpt>
      <trkpt lat="43.5222" lon="6.30971">
        <ele>312.4</ele>
        <time>2019-03-27T13:26:42Z</time>
      </trkpt>
      <trkpt lat="43.5222" lon="6.30957">
        <ele>312.8</ele>
        <time>2019-03-27T13:27:12Z</time>
      </trkpt>
      <trkpt lat="43.52226" lon="6.30947">
        <ele>312.9</ele>
        <time>2019-03-27T13:27:21Z</time>
      </trkpt>
      <trkpt lat="43.52231" lon="6.30936">
        <ele>313</ele>
        <time>2019-03-27T13:27:29Z</time>
      </trkpt>
      <trkpt lat="43.52236" lon="6.30926">
        <ele>313.1</ele>
        <time>2019-03-27T13:27:36Z</time>
      </trkpt>
      <trkpt lat="43.52241" lon="6.30915">
        <ele>313.2</ele>
        <time>2019-03-27T13:27:44Z</time>
      </trkpt>
      <trkpt lat="43.52249" lon="6.30907">
        <ele>313</ele>
        <time>2019-03-27T13:27:50Z</time>
      </trkpt>
      <trkpt lat="43.52255" lon="6.30896">
        <ele>312.7</ele>
        <time>2019-03-27T13:27:57Z</time>
      </trkpt>
      <trkpt lat="43.52259" lon="6.30885">
        <ele>312.3</ele>
        <time>2019-03-27T13:28:04Z</time>
      </trkpt>
      <trkpt lat="43.52266" lon="6.30875">
        <ele>311.8</ele>
        <time>2019-03-27T13:28:10Z</time>
      </trkpt>
      <trkpt lat="43.5227" lon="6.30863">
        <ele>311.4</ele>
        <time>2019-03-27T13:28:16Z</time>
      </trkpt>
      <trkpt lat="43.52273" lon="6.30849">
        <ele>311</ele>
        <time>2019-03-27T13:28:24Z</time>
      </trkpt>
      <trkpt lat="43.52279" lon="6.3084">
        <ele>310.2</ele>
        <time>2019-03-27T13:28:32Z</time>
      </trkpt>
      <trkpt lat="43.52286" lon="6.30831">
        <ele>309.4</ele>
        <time>2019-03-27T13:28:40Z</time>
      </trkpt>
      <trkpt lat="43.52293" lon="6.30823">
        <ele>309.1</ele>
        <time>2019-03-27T13:28:46Z</time>
      </trkpt>
      <trkpt lat="43.52299" lon="6.30812">
        <ele>308.9</ele>
        <time>2019-03-27T13:28:53Z</time>
      </trkpt>
      <trkpt lat="43.52303" lon="6.30801">
        <ele>308.2</ele>
        <time>2019-03-27T13:29:01Z</time>
      </trkpt>
      <trkpt lat="43.52308" lon="6.30791">
        <ele>307.7</ele>
        <time>2019-03-27T13:29:07Z</time>
      </trkpt>
      <trkpt lat="43.52313" lon="6.3078">
        <ele>307.4</ele>
        <time>2019-03-27T13:29:14Z</time>
      </trkpt>
      <trkpt lat="43.52315" lon="6.30767">
        <ele>307.3</ele>
        <time>2019-03-27T13:29:21Z</time>
      </trkpt>
      <trkpt lat="43.52317" lon="6.30754">
        <ele>307.4</ele>
        <time>2019-03-27T13:29:29Z</time>
      </trkpt>
      <trkpt lat="43.52322" lon="6.30741">
        <ele>307.5</ele>
        <time>2019-03-27T13:29:37Z</time>
      </trkpt>
      <trkpt lat="43.52327" lon="6.3073">
        <ele>307.7</ele>
        <time>2019-03-27T13:29:45Z</time>
      </trkpt>
      <trkpt lat="43.52332" lon="6.3072">
        <ele>307.8</ele>
        <time>2019-03-27T13:29:50Z</time>
      </trkpt>
      <trkpt lat="43.52337" lon="6.30708">
        <ele>308.1</ele>
        <time>2019-03-27T13:29:58Z</time>
      </trkpt>
      <trkpt lat="43.52341" lon="6.30696">
        <ele>308.4</ele>
        <time>2019-03-27T13:30:07Z</time>
      </trkpt>
      <trkpt lat="43.52344" lon="6.30684">
        <ele>308.7</ele>
        <time>2019-03-27T13:30:15Z</time>
      </trkpt>
      <trkpt lat="43.52342" lon="6.3067">
        <ele>308.9</ele>
        <time>2019-03-27T13:30:24Z</time>
      </trkpt>
      <trkpt lat="43.52343" lon="6.30657">
        <ele>308.8</ele>
        <time>2019-03-27T13:30:33Z</time>
      </trkpt>
      <trkpt lat="43.52344" lon="6.30644">
        <ele>308.4</ele>
        <time>2019-03-27T13:30:41Z</time>
      </trkpt>
      <trkpt lat="43.52343" lon="6.30631">
        <ele>308.2</ele>
        <time>2019-03-27T13:30:50Z</time>
      </trkpt>
      <trkpt lat="43.52348" lon="6.3062">
        <ele>308</ele>
        <time>2019-03-27T13:30:58Z</time>
      </trkpt>
      <trkpt lat="43.52353" lon="6.30609">
        <ele>307.6</ele>
        <time>2019-03-27T13:31:07Z</time>
      </trkpt>
      <trkpt lat="43.52359" lon="6.306">
        <ele>306.8</ele>
        <time>2019-03-27T13:31:19Z</time>
      </trkpt>
      <trkpt lat="43.52365" lon="6.3059">
        <ele>305.9</ele>
        <time>2019-03-27T13:31:31Z</time>
      </trkpt>
      <trkpt lat="43.52374" lon="6.30584">
        <ele>305.2</ele>
        <time>2019-03-27T13:31:39Z</time>
      </trkpt>
      <trkpt lat="43.52382" lon="6.30576">
        <ele>304.4</ele>
        <time>2019-03-27T13:31:47Z</time>
      </trkpt>
      <trkpt lat="43.52389" lon="6.30567">
        <ele>304.1</ele>
        <time>2019-03-27T13:31:54Z</time>
      </trkpt>
      <trkpt lat="43.52398" lon="6.30561">
        <ele>303.4</ele>
        <time>2019-03-27T13:32:00Z</time>
      </trkpt>
      <trkpt lat="43.52403" lon="6.30551">
        <ele>303.1</ele>
        <time>2019-03-27T13:32:08Z</time>
      </trkpt>
      <trkpt lat="43.52402" lon="6.30539">
        <ele>303.1</ele>
        <time>2019-03-27T13:32:16Z</time>
      </trkpt>
      <trkpt lat="43.52393" lon="6.30531">
        <ele>302.8</ele>
        <time>2019-03-27T13:32:24Z</time>
      </trkpt>
      <trkpt lat="43.52385" lon="6.30524">
        <ele>302.4</ele>
        <time>2019-03-27T13:32:31Z</time>
      </trkpt>
      <trkpt lat="43.52385" lon="6.3051">
        <ele>302.1</ele>
        <time>2019-03-27T13:32:40Z</time>
      </trkpt>
      <trkpt lat="43.52383" lon="6.30498">
        <ele>302</ele>
        <time>2019-03-27T13:32:48Z</time>
      </trkpt>
      <trkpt lat="43.52382" lon="6.30485">
        <ele>301.8</ele>
        <time>2019-03-27T13:32:57Z</time>
      </trkpt>
      <trkpt lat="43.52385" lon="6.30473">
        <ele>301.8</ele>
        <time>2019-03-27T13:33:07Z</time>
      </trkpt>
      <trkpt lat="43.52388" lon="6.3046">
        <ele>302</ele>
        <time>2019-03-27T13:33:17Z</time>
      </trkpt>
      <trkpt lat="43.52393" lon="6.30448">
        <ele>302.3</ele>
        <time>2019-03-27T13:33:25Z</time>
      </trkpt>
      <trkpt lat="43.52395" lon="6.30436">
        <ele>302.4</ele>
        <time>2019-03-27T13:33:34Z</time>
      </trkpt>
      <trkpt lat="43.52402" lon="6.30428">
        <ele>303.1</ele>
        <time>2019-03-27T13:33:47Z</time>
      </trkpt>
      <trkpt lat="43.52409" lon="6.3042">
        <ele>305</ele>
        <time>2019-03-27T13:34:00Z</time>
      </trkpt>
      <trkpt lat="43.52417" lon="6.30413">
        <ele>307</ele>
        <time>2019-03-27T13:34:12Z</time>
      </trkpt>
      <trkpt lat="43.52421" lon="6.30401">
        <ele>309</ele>
        <time>2019-03-27T13:34:23Z</time>
      </trkpt>
      <trkpt lat="43.52425" lon="6.30389">
        <ele>310.8</ele>
        <time>2019-03-27T13:34:34Z</time>
      </trkpt>
      <trkpt lat="43.52427" lon="6.30376">
        <ele>312.7</ele>
        <time>2019-03-27T13:34:46Z</time>
      </trkpt>
      <trkpt lat="43.52434" lon="6.30367">
        <ele>314.3</ele>
        <time>2019-03-27T13:34:57Z</time>
      </trkpt>
      <trkpt lat="43.52439" lon="6.30356">
        <ele>316.1</ele>
        <time>2019-03-27T13:35:09Z</time>
      </trkpt>
      <trkpt lat="43.52444" lon="6.30345">
        <ele>321.7</ele>
        <time>2019-03-27T13:38:56Z</time>
      </trkpt>
      <trkpt lat="43.52452" lon="6.30338">
        <ele>321.7</ele>
        <time>2019-03-27T13:39:13Z</time>
      </trkpt>
      <trkpt lat="43.52458" lon="6.30328">
        <ele>321.5</ele>
        <time>2019-03-27T13:39:23Z</time>
      </trkpt>
      <trkpt lat="43.52465" lon="6.30319">
        <ele>321.1</ele>
        <time>2019-03-27T13:39:32Z</time>
      </trkpt>
      <trkpt lat="43.5247" lon="6.30309">
        <ele>320.2</ele>
        <time>2019-03-27T13:39:45Z</time>
      </trkpt>
      <trkpt lat="43.52477" lon="6.30299">
        <ele>318.6</ele>
        <time>2019-03-27T13:39:57Z</time>
      </trkpt>
      <trkpt lat="43.52484" lon="6.30291">
        <ele>317.4</ele>
        <time>2019-03-27T13:40:08Z</time>
      </trkpt>
      <trkpt lat="43.5249" lon="6.30281">
        <ele>316.3</ele>
        <time>2019-03-27T13:40:19Z</time>
      </trkpt>
      <trkpt lat="43.52496" lon="6.30272">
        <ele>314.9</ele>
        <time>2019-03-27T13:40:30Z</time>
      </trkpt>
      <trkpt lat="43.52502" lon="6.30263">
        <ele>313.7</ele>
        <time>2019-03-27T13:40:40Z</time>
      </trkpt>
      <trkpt lat="43.5251" lon="6.30255">
        <ele>312.5</ele>
        <time>2019-03-27T13:40:50Z</time>
      </trkpt>
      <trkpt lat="43.52517" lon="6.30246">
        <ele>311.7</ele>
        <time>2019-03-27T13:41:00Z</time>
      </trkpt>
      <trkpt lat="43.52527" lon="6.30246">
        <ele>310.9</ele>
        <time>2019-03-27T13:41:10Z</time>
      </trkpt>
      <trkpt lat="43.52536" lon="6.3025">
        <ele>310.8</ele>
        <time>2019-03-27T13:41:19Z</time>
      </trkpt>
      <trkpt lat="43.52544" lon="6.30257">
        <ele>311.1</ele>
        <time>2019-03-27T13:41:25Z</time>
      </trkpt>
      <trkpt lat="43.52553" lon="6.30259">
        <ele>311.6</ele>
        <time>2019-03-27T13:41:37Z</time>
      </trkpt>
      <trkpt lat="43.52555" lon="6.30247">
        <ele>312.2</ele>
        <time>2019-03-27T13:41:48Z</time>
      </trkpt>
      <trkpt lat="43.5255" lon="6.30236">
        <ele>312.7</ele>
        <time>2019-03-27T13:42:03Z</time>
      </trkpt>
      <trkpt lat="43.52546" lon="6.30224">
        <ele>312.9</ele>
        <time>2019-03-27T13:42:13Z</time>
      </trkpt>
      <trkpt lat="43.52541" lon="6.30212">
        <ele>313</ele>
        <time>2019-03-27T13:42:22Z</time>
      </trkpt>
      <trkpt lat="43.52537" lon="6.302">
        <ele>312.9</ele>
        <time>2019-03-27T13:42:30Z</time>
      </trkpt>
      <trkpt lat="43.52532" lon="6.30189">
        <ele>312.5</ele>
        <time>2019-03-27T13:42:41Z</time>
      </trkpt>
      <trkpt lat="43.52527" lon="6.30178">
        <ele>312</ele>
        <time>2019-03-27T13:42:51Z</time>
      </trkpt>
      <trkpt lat="43.52526" lon="6.30165">
        <ele>311.5</ele>
        <time>2019-03-27T13:43:00Z</time>
      </trkpt>
      <trkpt lat="43.52527" lon="6.30151">
        <ele>311.2</ele>
        <time>2019-03-27T13:43:07Z</time>
      </trkpt>
      <trkpt lat="43.52526" lon="6.30138">
        <ele>311.2</ele>
        <time>2019-03-27T13:43:17Z</time>
      </trkpt>
      <trkpt lat="43.52532" lon="6.30128">
        <ele>311.7</ele>
        <time>2019-03-27T13:43:27Z</time>
      </trkpt>
      <trkpt lat="43.5253" lon="6.30115">
        <ele>312.4</ele>
        <time>2019-03-27T13:43:37Z</time>
      </trkpt>
      <trkpt lat="43.52526" lon="6.30103">
        <ele>312.8</ele>
        <time>2019-03-27T13:43:47Z</time>
      </trkpt>
      <trkpt lat="43.52519" lon="6.30093">
        <ele>312.9</ele>
        <time>2019-03-27T13:43:57Z</time>
      </trkpt>
      <trkpt lat="43.52515" lon="6.30082">
        <ele>312.4</ele>
        <time>2019-03-27T13:44:06Z</time>
      </trkpt>
      <trkpt lat="43.52512" lon="6.30069">
        <ele>311.6</ele>
        <time>2019-03-27T13:44:15Z</time>
      </trkpt>
      <trkpt lat="43.52513" lon="6.30057">
        <ele>310.7</ele>
        <time>2019-03-27T13:44:23Z</time>
      </trkpt>
      <trkpt lat="43.52514" lon="6.30044">
        <ele>309.4</ele>
        <time>2019-03-27T13:44:33Z</time>
      </trkpt>
      <trkpt lat="43.52514" lon="6.3003">
        <ele>308.6</ele>
        <time>2019-03-27T13:44:40Z</time>
      </trkpt>
      <trkpt lat="43.52519" lon="6.30019">
        <ele>307.6</ele>
        <time>2019-03-27T13:44:48Z</time>
      </trkpt>
      <trkpt lat="43.52526" lon="6.30009">
        <ele>306.8</ele>
        <time>2019-03-27T13:44:56Z</time>
      </trkpt>
      <trkpt lat="43.52534" lon="6.3">
        <ele>306.7</ele>
        <time>2019-03-27T13:45:04Z</time>
      </trkpt>
      <trkpt lat="43.5254" lon="6.2999">
        <ele>306.3</ele>
        <time>2019-03-27T13:45:13Z</time>
      </trkpt>
      <trkpt lat="43.52549" lon="6.29985">
        <ele>306.2</ele>
        <time>2019-03-27T13:45:19Z</time>
      </trkpt>
      <trkpt lat="43.52557" lon="6.29977">
        <ele>306.5</ele>
        <time>2019-03-27T13:45:29Z</time>
      </trkpt>
      <trkpt lat="43.52564" lon="6.29969">
        <ele>306.3</ele>
        <time>2019-03-27T13:45:39Z</time>
      </trkpt>
      <trkpt lat="43.52574" lon="6.29964">
        <ele>306.3</ele>
        <time>2019-03-27T13:45:48Z</time>
      </trkpt>
      <trkpt lat="43.52584" lon="6.29967">
        <ele>306.3</ele>
        <time>2019-03-27T13:45:56Z</time>
      </trkpt>
      <trkpt lat="43.52593" lon="6.29971">
        <ele>306.6</ele>
        <time>2019-03-27T13:46:03Z</time>
      </trkpt>
      <trkpt lat="43.52603" lon="6.29973">
        <ele>307.5</ele>
        <time>2019-03-27T13:46:15Z</time>
      </trkpt>
      <trkpt lat="43.52613" lon="6.29974">
        <ele>308.3</ele>
        <time>2019-03-27T13:46:24Z</time>
      </trkpt>
      <trkpt lat="43.52622" lon="6.29975">
        <ele>309.5</ele>
        <time>2019-03-27T13:46:38Z</time>
      </trkpt>
      <trkpt lat="43.52631" lon="6.29976">
        <ele>310.9</ele>
        <time>2019-03-27T13:46:49Z</time>
      </trkpt>
      <trkpt lat="43.52641" lon="6.29978">
        <ele>312.1</ele>
        <time>2019-03-27T13:47:01Z</time>
      </trkpt>
      <trkpt lat="43.5265" lon="6.29981">
        <ele>313.3</ele>
        <time>2019-03-27T13:47:12Z</time>
      </trkpt>
      <trkpt lat="43.5266" lon="6.29981">
        <ele>314.3</ele>
        <time>2019-03-27T13:47:20Z</time>
      </trkpt>
      <trkpt lat="43.52669" lon="6.29983">
        <ele>315.1</ele>
        <time>2019-03-27T13:47:29Z</time>
      </trkpt>
      <trkpt lat="43.52679" lon="6.29984">
        <ele>316.2</ele>
        <time>2019-03-27T13:47:39Z</time>
      </trkpt>
      <trkpt lat="43.52687" lon="6.29989">
        <ele>317.2</ele>
        <time>2019-03-27T13:47:49Z</time>
      </trkpt>
      <trkpt lat="43.52696" lon="6.29993">
        <ele>318.1</ele>
        <time>2019-03-27T13:47:58Z</time>
      </trkpt>
      <trkpt lat="43.52704" lon="6.29998">
        <ele>319.4</ele>
        <time>2019-03-27T13:48:08Z</time>
      </trkpt>
      <trkpt lat="43.52713" lon="6.30004">
        <ele>320.2</ele>
        <time>2019-03-27T13:48:19Z</time>
      </trkpt>
      <trkpt lat="43.52721" lon="6.30009">
        <ele>321.3</ele>
        <time>2019-03-27T13:48:31Z</time>
      </trkpt>
      <trkpt lat="43.5273" lon="6.30012">
        <ele>322.1</ele>
        <time>2019-03-27T13:48:41Z</time>
      </trkpt>
      <trkpt lat="43.52739" lon="6.30017">
        <ele>322.6</ele>
        <time>2019-03-27T13:48:51Z</time>
      </trkpt>
      <trkpt lat="43.52749" lon="6.30021">
        <ele>323</ele>
        <time>2019-03-27T13:48:59Z</time>
      </trkpt>
      <trkpt lat="43.52758" lon="6.30025">
        <ele>323.2</ele>
        <time>2019-03-27T13:49:07Z</time>
      </trkpt>
      <trkpt lat="43.52766" lon="6.30033">
        <ele>323.7</ele>
        <time>2019-03-27T13:49:17Z</time>
      </trkpt>
      <trkpt lat="43.52773" lon="6.30043">
        <ele>324.7</ele>
        <time>2019-03-27T13:49:27Z</time>
      </trkpt>
      <trkpt lat="43.52779" lon="6.30054">
        <ele>325.4</ele>
        <time>2019-03-27T13:49:37Z</time>
      </trkpt>
      <trkpt lat="43.52783" lon="6.30066">
        <ele>325.9</ele>
        <time>2019-03-27T13:49:45Z</time>
      </trkpt>
      <trkpt lat="43.52787" lon="6.30078">
        <ele>326.7</ele>
        <time>2019-03-27T13:49:53Z</time>
      </trkpt>
      <trkpt lat="43.52791" lon="6.30089">
        <ele>327.2</ele>
        <time>2019-03-27T13:50:02Z</time>
      </trkpt>
      <trkpt lat="43.52798" lon="6.30098">
        <ele>327.6</ele>
        <time>2019-03-27T13:50:24Z</time>
      </trkpt>
      <trkpt lat="43.52806" lon="6.30105">
        <ele>329.7</ele>
        <time>2019-03-27T13:52:47Z</time>
      </trkpt>
      <trkpt lat="43.52815" lon="6.30107">
        <ele>329.9</ele>
        <time>2019-03-27T13:52:57Z</time>
      </trkpt>
      <trkpt lat="43.52825" lon="6.30107">
        <ele>330.7</ele>
        <time>2019-03-27T13:53:11Z</time>
      </trkpt>
      <trkpt lat="43.52834" lon="6.30107">
        <ele>331.6</ele>
        <time>2019-03-27T13:53:22Z</time>
      </trkpt>
      <trkpt lat="43.52843" lon="6.30111">
        <ele>332.3</ele>
        <time>2019-03-27T13:53:33Z</time>
      </trkpt>
      <trkpt lat="43.52852" lon="6.30117">
        <ele>333.5</ele>
        <time>2019-03-27T13:53:45Z</time>
      </trkpt>
      <trkpt lat="43.5286" lon="6.30123">
        <ele>334</ele>
        <time>2019-03-27T13:53:56Z</time>
      </trkpt>
      <trkpt lat="43.52869" lon="6.3013">
        <ele>334.5</ele>
        <time>2019-03-27T13:54:07Z</time>
      </trkpt>
      <trkpt lat="43.52878" lon="6.30134">
        <ele>335.6</ele>
        <time>2019-03-27T13:54:19Z</time>
      </trkpt>
      <trkpt lat="43.52887" lon="6.30137">
        <ele>337.6</ele>
        <time>2019-03-27T13:55:12Z</time>
      </trkpt>
      <trkpt lat="43.52895" lon="6.30144">
        <ele>338.3</ele>
        <time>2019-03-27T13:55:21Z</time>
      </trkpt>
      <trkpt lat="43.52904" lon="6.30151">
        <ele>339.1</ele>
        <time>2019-03-27T13:55:30Z</time>
      </trkpt>
      <trkpt lat="43.52912" lon="6.30158">
        <ele>339.9</ele>
        <time>2019-03-27T13:55:42Z</time>
      </trkpt>
      <trkpt lat="43.5292" lon="6.30165">
        <ele>340.3</ele>
        <time>2019-03-27T13:55:50Z</time>
      </trkpt>
      <trkpt lat="43.52927" lon="6.30174">
        <ele>341.1</ele>
        <time>2019-03-27T13:56:01Z</time>
      </trkpt>
      <trkpt lat="43.52933" lon="6.30185">
        <ele>342.1</ele>
        <time>2019-03-27T13:56:11Z</time>
      </trkpt>
      <trkpt lat="43.52937" lon="6.30196">
        <ele>342.7</ele>
        <time>2019-03-27T13:56:19Z</time>
      </trkpt>
      <trkpt lat="43.52939" lon="6.30208">
        <ele>343.5</ele>
        <time>2019-03-27T13:56:27Z</time>
      </trkpt>
      <trkpt lat="43.52939" lon="6.30221">
        <ele>344.3</ele>
        <time>2019-03-27T13:56:36Z</time>
      </trkpt>
      <trkpt lat="43.5294" lon="6.30234">
        <ele>345.4</ele>
        <time>2019-03-27T13:56:46Z</time>
      </trkpt>
      <trkpt lat="43.52945" lon="6.30244">
        <ele>346.1</ele>
        <time>2019-03-27T13:56:56Z</time>
      </trkpt>
      <trkpt lat="43.52952" lon="6.30255">
        <ele>346.1</ele>
        <time>2019-03-27T13:57:05Z</time>
      </trkpt>
      <trkpt lat="43.52961" lon="6.30261">
        <ele>346.2</ele>
        <time>2019-03-27T13:57:14Z</time>
      </trkpt>
      <trkpt lat="43.52971" lon="6.30259">
        <ele>346.2</ele>
        <time>2019-03-27T13:57:21Z</time>
      </trkpt>
      <trkpt lat="43.52979" lon="6.30255">
        <ele>346.1</ele>
        <time>2019-03-27T13:57:28Z</time>
      </trkpt>
      <trkpt lat="43.52987" lon="6.30249">
        <ele>346</ele>
        <time>2019-03-27T13:57:35Z</time>
      </trkpt>
      <trkpt lat="43.52995" lon="6.30242">
        <ele>346</ele>
        <time>2019-03-27T13:57:43Z</time>
      </trkpt>
      <trkpt lat="43.53005" lon="6.30239">
        <ele>346.3</ele>
        <time>2019-03-27T13:57:52Z</time>
      </trkpt>
      <trkpt lat="43.53014" lon="6.30244">
        <ele>347.2</ele>
        <time>2019-03-27T13:58:01Z</time>
      </trkpt>
      <trkpt lat="43.5302" lon="6.30255">
        <ele>348</ele>
        <time>2019-03-27T13:58:09Z</time>
      </trkpt>
      <trkpt lat="43.53029" lon="6.30261">
        <ele>348.8</ele>
        <time>2019-03-27T13:58:18Z</time>
      </trkpt>
      <trkpt lat="43.53036" lon="6.30254">
        <ele>349.7</ele>
        <time>2019-03-27T13:58:26Z</time>
      </trkpt>
      <trkpt lat="43.53044" lon="6.30248">
        <ele>350.1</ele>
        <time>2019-03-27T13:58:33Z</time>
      </trkpt>
      <trkpt lat="43.53054" lon="6.30248">
        <ele>350.2</ele>
        <time>2019-03-27T13:58:42Z</time>
      </trkpt>
      <trkpt lat="43.53064" lon="6.3025">
        <ele>350.2</ele>
        <time>2019-03-27T13:58:49Z</time>
      </trkpt>
      <trkpt lat="43.53074" lon="6.30252">
        <ele>350</ele>
        <time>2019-03-27T13:58:57Z</time>
      </trkpt>
      <trkpt lat="43.53083" lon="6.30253">
        <ele>349.8</ele>
        <time>2019-03-27T13:59:30Z</time>
      </trkpt>
      <trkpt lat="43.53089" lon="6.30243">
        <ele>349.1</ele>
        <time>2019-03-27T13:59:51Z</time>
      </trkpt>
      <trkpt lat="43.5309" lon="6.3023">
        <ele>348.1</ele>
        <time>2019-03-27T14:00:08Z</time>
      </trkpt>
      <trkpt lat="43.53098" lon="6.30222">
        <ele>346.6</ele>
        <time>2019-03-27T14:00:23Z</time>
      </trkpt>
      <trkpt lat="43.53107" lon="6.30222">
        <ele>345.9</ele>
        <time>2019-03-27T14:00:35Z</time>
      </trkpt>
      <trkpt lat="43.53113" lon="6.30213">
        <ele>345</ele>
        <time>2019-03-27T14:00:47Z</time>
      </trkpt>
      <trkpt lat="43.5312" lon="6.30203">
        <ele>344.4</ele>
        <time>2019-03-27T14:00:55Z</time>
      </trkpt>
      <trkpt lat="43.53123" lon="6.30191">
        <ele>343.6</ele>
        <time>2019-03-27T14:01:04Z</time>
      </trkpt>
      <trkpt lat="43.53128" lon="6.3018">
        <ele>342.3</ele>
        <time>2019-03-27T14:01:19Z</time>
      </trkpt>
      <trkpt lat="43.53136" lon="6.30172">
        <ele>340.9</ele>
        <time>2019-03-27T14:01:32Z</time>
      </trkpt>
      <trkpt lat="43.53142" lon="6.30163">
        <ele>339.5</ele>
        <time>2019-03-27T14:01:45Z</time>
      </trkpt>
      <trkpt lat="43.53148" lon="6.30153">
        <ele>337.8</ele>
        <time>2019-03-27T14:01:59Z</time>
      </trkpt>
      <trkpt lat="43.53146" lon="6.30141">
        <ele>336.6</ele>
        <time>2019-03-27T14:02:11Z</time>
      </trkpt>
      <trkpt lat="43.53143" lon="6.30128">
        <ele>335.6</ele>
        <time>2019-03-27T14:02:21Z</time>
      </trkpt>
      <trkpt lat="43.53139" lon="6.30116">
        <ele>334.6</ele>
        <time>2019-03-27T14:02:31Z</time>
      </trkpt>
      <trkpt lat="43.53134" lon="6.30102">
        <ele>331.2</ele>
        <time>2019-03-27T14:03:00Z</time>
      </trkpt>
      <trkpt lat="43.53124" lon="6.30097">
        <ele>330.6</ele>
        <time>2019-03-27T14:03:07Z</time>
      </trkpt>
      <trkpt lat="43.53118" lon="6.30089">
        <ele>329.9</ele>
        <time>2019-03-27T14:03:21Z</time>
      </trkpt>
      <trkpt lat="43.53115" lon="6.30076">
        <ele>329.6</ele>
        <time>2019-03-27T14:03:35Z</time>
      </trkpt>
      <trkpt lat="43.53113" lon="6.30063">
        <ele>329.4</ele>
        <time>2019-03-27T14:03:47Z</time>
      </trkpt>
      <trkpt lat="43.53106" lon="6.30055">
        <ele>329.7</ele>
        <time>2019-03-27T14:03:57Z</time>
      </trkpt>
      <trkpt lat="43.53099" lon="6.30048">
        <ele>329.5</ele>
        <time>2019-03-27T14:04:06Z</time>
      </trkpt>
      <trkpt lat="43.53093" lon="6.30037">
        <ele>329.5</ele>
        <time>2019-03-27T14:04:13Z</time>
      </trkpt>
      <trkpt lat="43.53087" lon="6.30027">
        <ele>329.7</ele>
        <time>2019-03-27T14:04:21Z</time>
      </trkpt>
      <trkpt lat="43.5308" lon="6.30019">
        <ele>329.9</ele>
        <time>2019-03-27T14:04:32Z</time>
      </trkpt>
      <trkpt lat="43.53073" lon="6.3001">
        <ele>330.3</ele>
        <time>2019-03-27T14:04:40Z</time>
      </trkpt>
      <trkpt lat="43.53067" lon="6.3">
        <ele>331.1</ele>
        <time>2019-03-27T14:04:49Z</time>
      </trkpt>
      <trkpt lat="43.53061" lon="6.29989">
        <ele>332</ele>
        <time>2019-03-27T14:04:58Z</time>
      </trkpt>
      <trkpt lat="43.5306" lon="6.29976">
        <ele>333</ele>
        <time>2019-03-27T14:05:11Z</time>
      </trkpt>
      <trkpt lat="43.53065" lon="6.29965">
        <ele>333.1</ele>
        <time>2019-03-27T14:05:22Z</time>
      </trkpt>
      <trkpt lat="43.53057" lon="6.29958">
        <ele>333.9</ele>
        <time>2019-03-27T14:05:38Z</time>
      </trkpt>
      <trkpt lat="43.53053" lon="6.29944">
        <ele>334.2</ele>
        <time>2019-03-27T14:06:18Z</time>
      </trkpt>
      <trkpt lat="43.53038" lon="6.29911">
        <ele>323</ele>
        <time>2019-03-27T14:10:20Z</time>
      </trkpt>
      <trkpt lat="43.53027" lon="6.29897">
        <ele>323.6</ele>
        <time>2019-03-27T14:10:25Z</time>
      </trkpt>
      <trkpt lat="43.53018" lon="6.29887">
        <ele>323.5</ele>
        <time>2019-03-27T14:10:29Z</time>
      </trkpt>
      <trkpt lat="43.5301" lon="6.29881">
        <ele>323.5</ele>
        <time>2019-03-27T14:10:33Z</time>
      </trkpt>
      <trkpt lat="43.53" lon="6.29875">
        <ele>323.5</ele>
        <time>2019-03-27T14:10:37Z</time>
      </trkpt>
      <trkpt lat="43.52992" lon="6.2987">
        <ele>323.5</ele>
        <time>2019-03-27T14:10:42Z</time>
      </trkpt>
      <trkpt lat="43.52983" lon="6.29861">
        <ele>323.5</ele>
        <time>2019-03-27T14:10:51Z</time>
      </trkpt>
      <trkpt lat="43.52947" lon="6.29821">
        <ele>323</ele>
        <time>2019-03-27T14:12:11Z</time>
      </trkpt>
      <trkpt lat="43.52941" lon="6.29806">
        <ele>324</ele>
        <time>2019-03-27T14:12:16Z</time>
      </trkpt>
      <trkpt lat="43.52932" lon="6.29798">
        <ele>324.3</ele>
        <time>2019-03-27T14:12:23Z</time>
      </trkpt>
      <trkpt lat="43.52923" lon="6.29789">
        <ele>324.5</ele>
        <time>2019-03-27T14:12:27Z</time>
      </trkpt>
      <trkpt lat="43.52915" lon="6.29798">
        <ele>325.2</ele>
        <time>2019-03-27T14:13:01Z</time>
      </trkpt>
      <trkpt lat="43.52905" lon="6.298">
        <ele>325.4</ele>
        <time>2019-03-27T14:13:10Z</time>
      </trkpt>
      <trkpt lat="43.52896" lon="6.29794">
        <ele>325.7</ele>
        <time>2019-03-27T14:13:18Z</time>
      </trkpt>
      <trkpt lat="43.52888" lon="6.29787">
        <ele>326.3</ele>
        <time>2019-03-27T14:13:28Z</time>
      </trkpt>
      <trkpt lat="43.5288" lon="6.29782">
        <ele>327.3</ele>
        <time>2019-03-27T14:13:45Z</time>
      </trkpt>
      <trkpt lat="43.52872" lon="6.29774">
        <ele>328</ele>
        <time>2019-03-27T14:13:54Z</time>
      </trkpt>
      <trkpt lat="43.52863" lon="6.29769">
        <ele>329</ele>
        <time>2019-03-27T14:14:06Z</time>
      </trkpt>
      <trkpt lat="43.52854" lon="6.29764">
        <ele>330.5</ele>
        <time>2019-03-27T14:14:21Z</time>
      </trkpt>
      <trkpt lat="43.52845" lon="6.29759">
        <ele>331.2</ele>
        <time>2019-03-27T14:14:31Z</time>
      </trkpt>
      <trkpt lat="43.52836" lon="6.29754">
        <ele>331.8</ele>
        <time>2019-03-27T14:14:39Z</time>
      </trkpt>
      <trkpt lat="43.52827" lon="6.2975">
        <ele>332.6</ele>
        <time>2019-03-27T14:14:50Z</time>
      </trkpt>
      <trkpt lat="43.52818" lon="6.29744">
        <ele>333.5</ele>
        <time>2019-03-27T14:15:02Z</time>
      </trkpt>
      <trkpt lat="43.52809" lon="6.29739">
        <ele>334</ele>
        <time>2019-03-27T14:15:12Z</time>
      </trkpt>
      <trkpt lat="43.528" lon="6.29735">
        <ele>334.4</ele>
        <time>2019-03-27T14:15:20Z</time>
      </trkpt>
      <trkpt lat="43.5279" lon="6.29733">
        <ele>334.7</ele>
        <time>2019-03-27T14:15:29Z</time>
      </trkpt>
      <trkpt lat="43.52781" lon="6.29732">
        <ele>334.8</ele>
        <time>2019-03-27T14:15:36Z</time>
      </trkpt>
      <trkpt lat="43.52772" lon="6.29734">
        <ele>334.8</ele>
        <time>2019-03-27T14:15:43Z</time>
      </trkpt>
      <trkpt lat="43.52762" lon="6.29734">
        <ele>334.6</ele>
        <time>2019-03-27T14:15:48Z</time>
      </trkpt>
      <trkpt lat="43.52753" lon="6.29735">
        <ele>334.2</ele>
        <time>2019-03-27T14:15:56Z</time>
      </trkpt>
      <trkpt lat="43.52744" lon="6.29742">
        <ele>333.7</ele>
        <time>2019-03-27T14:16:06Z</time>
      </trkpt>
      <trkpt lat="43.52735" lon="6.29746">
        <ele>332.8</ele>
        <time>2019-03-27T14:16:17Z</time>
      </trkpt>
      <trkpt lat="43.52725" lon="6.29749">
        <ele>332.3</ele>
        <time>2019-03-27T14:16:25Z</time>
      </trkpt>
      <trkpt lat="43.52716" lon="6.29751">
        <ele>331.5</ele>
        <time>2019-03-27T14:16:33Z</time>
      </trkpt>
      <trkpt lat="43.52707" lon="6.29753">
        <ele>330.7</ele>
        <time>2019-03-27T14:16:42Z</time>
      </trkpt>
      <trkpt lat="43.52697" lon="6.29755">
        <ele>329.9</ele>
        <time>2019-03-27T14:16:51Z</time>
      </trkpt>
      <trkpt lat="43.52688" lon="6.29751">
        <ele>329</ele>
        <time>2019-03-27T14:17:00Z</time>
      </trkpt>
      <trkpt lat="43.52678" lon="6.2975">
        <ele>328.2</ele>
        <time>2019-03-27T14:17:10Z</time>
      </trkpt>
      <trkpt lat="43.52669" lon="6.29748">
        <ele>327.8</ele>
        <time>2019-03-27T14:17:18Z</time>
      </trkpt>
      <trkpt lat="43.52659" lon="6.29749">
        <ele>327.5</ele>
        <time>2019-03-27T14:17:23Z</time>
      </trkpt>
      <trkpt lat="43.5265" lon="6.29749">
        <ele>326.9</ele>
        <time>2019-03-27T14:17:34Z</time>
      </trkpt>
      <trkpt lat="43.52644" lon="6.29739">
        <ele>326.4</ele>
        <time>2019-03-27T14:17:48Z</time>
      </trkpt>
      <trkpt lat="43.52636" lon="6.29731">
        <ele>325.9</ele>
        <time>2019-03-27T14:17:58Z</time>
      </trkpt>
      <trkpt lat="43.52628" lon="6.29724">
        <ele>325.3</ele>
        <time>2019-03-27T14:18:06Z</time>
      </trkpt>
      <trkpt lat="43.52619" lon="6.29719">
        <ele>324.7</ele>
        <time>2019-03-27T14:18:13Z</time>
      </trkpt>
      <trkpt lat="43.5261" lon="6.2972">
        <ele>324.1</ele>
        <time>2019-03-27T14:18:22Z</time>
      </trkpt>
      <trkpt lat="43.526" lon="6.2972">
        <ele>323.7</ele>
        <time>2019-03-27T14:18:29Z</time>
      </trkpt>
      <trkpt lat="43.52591" lon="6.29719">
        <ele>323.2</ele>
        <time>2019-03-27T14:18:37Z</time>
      </trkpt>
      <trkpt lat="43.52581" lon="6.29715">
        <ele>322.4</ele>
        <time>2019-03-27T14:18:48Z</time>
      </trkpt>
      <trkpt lat="43.52571" lon="6.29712">
        <ele>321.5</ele>
        <time>2019-03-27T14:19:00Z</time>
      </trkpt>
      <trkpt lat="43.52562" lon="6.29714">
        <ele>320.6</ele>
        <time>2019-03-27T14:19:09Z</time>
      </trkpt>
      <trkpt lat="43.52553" lon="6.29714">
        <ele>320</ele>
        <time>2019-03-27T14:19:18Z</time>
      </trkpt>
      <trkpt lat="43.52543" lon="6.29718">
        <ele>319.3</ele>
        <time>2019-03-27T14:19:26Z</time>
      </trkpt>
      <trkpt lat="43.52533" lon="6.29719">
        <ele>319</ele>
        <time>2019-03-27T14:19:31Z</time>
      </trkpt>
      <trkpt lat="43.52525" lon="6.29726">
        <ele>318.3</ele>
        <time>2019-03-27T14:19:41Z</time>
      </trkpt>
      <trkpt lat="43.52517" lon="6.29732">
        <ele>317.6</ele>
        <time>2019-03-27T14:19:50Z</time>
      </trkpt>
      <trkpt lat="43.52508" lon="6.29738">
        <ele>316.6</ele>
        <time>2019-03-27T14:23:44Z</time>
      </trkpt>
      <trkpt lat="43.52499" lon="6.29741">
        <ele>316.6</ele>
        <time>2019-03-27T14:23:56Z</time>
      </trkpt>
      <trkpt lat="43.52493" lon="6.29751">
        <ele>316</ele>
        <time>2019-03-27T14:24:09Z</time>
      </trkpt>
      <trkpt lat="43.52491" lon="6.29764">
        <ele>315.2</ele>
        <time>2019-03-27T14:24:24Z</time>
      </trkpt>
      <trkpt lat="43.52485" lon="6.29774">
        <ele>314.6</ele>
        <time>2019-03-27T14:24:34Z</time>
      </trkpt>
      <trkpt lat="43.52479" lon="6.29784">
        <ele>314.1</ele>
        <time>2019-03-27T14:24:42Z</time>
      </trkpt>
      <trkpt lat="43.52476" lon="6.29798">
        <ele>313.6</ele>
        <time>2019-03-27T14:24:48Z</time>
      </trkpt>
      <trkpt lat="43.52471" lon="6.29809">
        <ele>313.4</ele>
        <time>2019-03-27T14:24:53Z</time>
      </trkpt>
      <trkpt lat="43.52465" lon="6.29821">
        <ele>312.9</ele>
        <time>2019-03-27T14:24:59Z</time>
      </trkpt>
      <trkpt lat="43.52459" lon="6.29833">
        <ele>312.6</ele>
        <time>2019-03-27T14:25:03Z</time>
      </trkpt>
      <trkpt lat="43.52449" lon="6.29824">
        <ele>312.5</ele>
        <time>2019-03-27T14:25:07Z</time>
      </trkpt>
      <trkpt lat="43.52441" lon="6.29819">
        <ele>312.3</ele>
        <time>2019-03-27T14:25:13Z</time>
      </trkpt>
      <trkpt lat="43.52431" lon="6.29819">
        <ele>312.1</ele>
        <time>2019-03-27T14:25:21Z</time>
      </trkpt>
      <trkpt lat="43.52423" lon="6.29826">
        <ele>311.9</ele>
        <time>2019-03-27T14:25:30Z</time>
      </trkpt>
      <trkpt lat="43.52421" lon="6.29839">
        <ele>311.8</ele>
        <time>2019-03-27T14:25:39Z</time>
      </trkpt>
      <trkpt lat="43.52417" lon="6.29852">
        <ele>311.8</ele>
        <time>2019-03-27T14:25:47Z</time>
      </trkpt>
      <trkpt lat="43.52412" lon="6.29864">
        <ele>311.8</ele>
        <time>2019-03-27T14:26:00Z</time>
      </trkpt>
      <trkpt lat="43.52403" lon="6.29877">
        <ele>304.5</ele>
        <time>2019-03-27T14:29:10Z</time>
      </trkpt>
      <trkpt lat="43.52394" lon="6.29881">
        <ele>304.2</ele>
        <time>2019-03-27T14:29:15Z</time>
      </trkpt>
      <trkpt lat="43.52385" lon="6.29886">
        <ele>303.9</ele>
        <time>2019-03-27T14:29:21Z</time>
      </trkpt>
      <trkpt lat="43.52376" lon="6.29892">
        <ele>303.4</ele>
        <time>2019-03-27T14:29:27Z</time>
      </trkpt>
      <trkpt lat="43.52367" lon="6.29898">
        <ele>303</ele>
        <time>2019-03-27T14:29:32Z</time>
      </trkpt>
      <trkpt lat="43.52359" lon="6.29906">
        <ele>302.8</ele>
        <time>2019-03-27T14:29:37Z</time>
      </trkpt>
      <trkpt lat="43.5235" lon="6.29912">
        <ele>302.4</ele>
        <time>2019-03-27T14:29:44Z</time>
      </trkpt>
      <trkpt lat="43.52342" lon="6.29917">
        <ele>302.1</ele>
        <time>2019-03-27T14:29:52Z</time>
      </trkpt>
      <trkpt lat="43.52335" lon="6.29927">
        <ele>301.6</ele>
        <time>2019-03-27T14:30:00Z</time>
      </trkpt>
      <trkpt lat="43.52331" lon="6.29938">
        <ele>301.1</ele>
        <time>2019-03-27T14:30:08Z</time>
      </trkpt>
      <trkpt lat="43.52321" lon="6.29945">
        <ele>300.6</ele>
        <time>2019-03-27T14:30:15Z</time>
      </trkpt>
      <trkpt lat="43.52311" lon="6.29949">
        <ele>300.4</ele>
        <time>2019-03-27T14:30:18Z</time>
      </trkpt>
      <trkpt lat="43.52302" lon="6.29957">
        <ele>299.8</ele>
        <time>2019-03-27T14:30:23Z</time>
      </trkpt>
      <trkpt lat="43.52298" lon="6.29969">
        <ele>299.4</ele>
        <time>2019-03-27T14:30:25Z</time>
      </trkpt>
      <trkpt lat="43.52292" lon="6.29983">
        <ele>298.8</ele>
        <time>2019-03-27T14:30:29Z</time>
      </trkpt>
      <trkpt lat="43.52286" lon="6.29993">
        <ele>298.3</ele>
        <time>2019-03-27T14:30:34Z</time>
      </trkpt>
      <trkpt lat="43.52278" lon="6.3">
        <ele>297.7</ele>
        <time>2019-03-27T14:30:41Z</time>
      </trkpt>
      <trkpt lat="43.52269" lon="6.30006">
        <ele>297</ele>
        <time>2019-03-27T14:30:51Z</time>
      </trkpt>
      <trkpt lat="43.5226" lon="6.3001">
        <ele>296.1</ele>
        <time>2019-03-27T14:31:02Z</time>
      </trkpt>
      <trkpt lat="43.52251" lon="6.30014">
        <ele>295.5</ele>
        <time>2019-03-27T14:31:12Z</time>
      </trkpt>
      <trkpt lat="43.52241" lon="6.30019">
        <ele>294.3</ele>
        <time>2019-03-27T14:31:33Z</time>
      </trkpt>
      <trkpt lat="43.52234" lon="6.30026">
        <ele>293.4</ele>
        <time>2019-03-27T14:31:44Z</time>
      </trkpt>
      <trkpt lat="43.52225" lon="6.3003">
        <ele>292.9</ele>
        <time>2019-03-27T14:32:13Z</time>
      </trkpt>
      <trkpt lat="43.52217" lon="6.30035">
        <ele>292.5</ele>
        <time>2019-03-27T14:32:24Z</time>
      </trkpt>
      <trkpt lat="43.52208" lon="6.30036">
        <ele>292.1</ele>
        <time>2019-03-27T14:32:39Z</time>
      </trkpt>
      <trkpt lat="43.52198" lon="6.30039">
        <ele>291.3</ele>
        <time>2019-03-27T14:32:53Z</time>
      </trkpt>
      <trkpt lat="43.52189" lon="6.30038">
        <ele>290.7</ele>
        <time>2019-03-27T14:33:03Z</time>
      </trkpt>
      <trkpt lat="43.5218" lon="6.30041">
        <ele>290</ele>
        <time>2019-03-27T14:33:16Z</time>
      </trkpt>
      <trkpt lat="43.5217" lon="6.30045">
        <ele>289.2</ele>
        <time>2019-03-27T14:33:27Z</time>
      </trkpt>
      <trkpt lat="43.52161" lon="6.30043">
        <ele>288.3</ele>
        <time>2019-03-27T14:33:47Z</time>
      </trkpt>
      <trkpt lat="43.52152" lon="6.30045">
        <ele>287.8</ele>
        <time>2019-03-27T14:33:55Z</time>
      </trkpt>
      <trkpt lat="43.52142" lon="6.30049">
        <ele>287.1</ele>
        <time>2019-03-27T14:34:05Z</time>
      </trkpt>
      <trkpt lat="43.52133" lon="6.30052">
        <ele>286.5</ele>
        <time>2019-03-27T14:34:15Z</time>
      </trkpt>
      <trkpt lat="43.52124" lon="6.30054">
        <ele>285.5</ele>
        <time>2019-03-27T14:34:25Z</time>
      </trkpt>
      <trkpt lat="43.52114" lon="6.30056">
        <ele>284.6</ele>
        <time>2019-03-27T14:34:41Z</time>
      </trkpt>
      <trkpt lat="43.5211" lon="6.30068">
        <ele>283.2</ele>
        <time>2019-03-27T14:35:09Z</time>
      </trkpt>
      <trkpt lat="43.52098" lon="6.3007">
        <ele>282</ele>
        <time>2019-03-27T14:35:33Z</time>
      </trkpt>
      <trkpt lat="43.52089" lon="6.3007">
        <ele>281.5</ele>
        <time>2019-03-27T14:35:42Z</time>
      </trkpt>
      <trkpt lat="43.5208" lon="6.30066">
        <ele>281.1</ele>
        <time>2019-03-27T14:35:50Z</time>
      </trkpt>
      <trkpt lat="43.52071" lon="6.30065">
        <ele>280.5</ele>
        <time>2019-03-27T14:35:59Z</time>
      </trkpt>
      <trkpt lat="43.52062" lon="6.30063">
        <ele>279.8</ele>
        <time>2019-03-27T14:36:09Z</time>
      </trkpt>
      <trkpt lat="43.52053" lon="6.3006">
        <ele>278.5</ele>
        <time>2019-03-27T14:36:30Z</time>
      </trkpt>
      <trkpt lat="43.52044" lon="6.30054">
        <ele>278.1</ele>
        <time>2019-03-27T14:36:41Z</time>
      </trkpt>
      <trkpt lat="43.52041" lon="6.30067">
        <ele>277.3</ele>
        <time>2019-03-27T14:37:13Z</time>
      </trkpt>
      <trkpt lat="43.52034" lon="6.30075">
        <ele>276.7</ele>
        <time>2019-03-27T14:37:25Z</time>
      </trkpt>
      <trkpt lat="43.52034" lon="6.30088">
        <ele>276.8</ele>
        <time>2019-03-27T14:37:50Z</time>
      </trkpt>
      <trkpt lat="43.52039" lon="6.30099">
        <ele>277.6</ele>
        <time>2019-03-27T14:38:06Z</time>
      </trkpt>
      <trkpt lat="43.52042" lon="6.30112">
        <ele>278.8</ele>
        <time>2019-03-27T14:38:17Z</time>
      </trkpt>
      <trkpt lat="43.52044" lon="6.30125">
        <ele>279.7</ele>
        <time>2019-03-27T14:38:26Z</time>
      </trkpt>
      <trkpt lat="43.52039" lon="6.30137">
        <ele>280.4</ele>
        <time>2019-03-27T14:38:34Z</time>
      </trkpt>
      <trkpt lat="43.52035" lon="6.30148">
        <ele>281</ele>
        <time>2019-03-27T14:38:41Z</time>
      </trkpt>
      <trkpt lat="43.52032" lon="6.3016">
        <ele>281.3</ele>
        <time>2019-03-27T14:38:47Z</time>
      </trkpt>
      <trkpt lat="43.52028" lon="6.30171">
        <ele>281.8</ele>
        <time>2019-03-27T14:38:54Z</time>
      </trkpt>
      <trkpt lat="43.52026" lon="6.30184">
        <ele>284</ele>
        <time>2019-03-27T14:39:36Z</time>
      </trkpt>
      <trkpt lat="43.52025" lon="6.30197">
        <ele>284.6</ele>
        <time>2019-03-27T14:39:47Z</time>
      </trkpt>
      <trkpt lat="43.52026" lon="6.3021">
        <ele>285.6</ele>
        <time>2019-03-27T14:39:58Z</time>
      </trkpt>
      <trkpt lat="43.52028" lon="6.30222">
        <ele>286.6</ele>
        <time>2019-03-27T14:40:08Z</time>
      </trkpt>
      <trkpt lat="43.52029" lon="6.30235">
        <ele>287.2</ele>
        <time>2019-03-27T14:40:18Z</time>
      </trkpt>
      <trkpt lat="43.5203" lon="6.30248">
        <ele>287.8</ele>
        <time>2019-03-27T14:40:27Z</time>
      </trkpt>
      <trkpt lat="43.52021" lon="6.30253">
        <ele>288.3</ele>
        <time>2019-03-27T14:40:38Z</time>
      </trkpt>
      <trkpt lat="43.52012" lon="6.30252">
        <ele>288.7</ele>
        <time>2019-03-27T14:40:48Z</time>
      </trkpt>
      <trkpt lat="43.52002" lon="6.30256">
        <ele>289</ele>
        <time>2019-03-27T14:40:57Z</time>
      </trkpt>
      <trkpt lat="43.51994" lon="6.3026">
        <ele>289.4</ele>
        <time>2019-03-27T14:41:06Z</time>
      </trkpt>
      <trkpt lat="43.51986" lon="6.30268">
        <ele>289.6</ele>
        <time>2019-03-27T14:41:14Z</time>
      </trkpt>
      <trkpt lat="43.51982" lon="6.3028">
        <ele>289.8</ele>
        <time>2019-03-27T14:41:25Z</time>
      </trkpt>
      <trkpt lat="43.51976" lon="6.30291">
        <ele>290</ele>
        <time>2019-03-27T14:41:34Z</time>
      </trkpt>
      <trkpt lat="43.5197" lon="6.30302">
        <ele>290.5</ele>
        <time>2019-03-27T14:41:48Z</time>
      </trkpt>
      <trkpt lat="43.51964" lon="6.30312">
        <ele>290.8</ele>
        <time>2019-03-27T14:41:56Z</time>
      </trkpt>
      <trkpt lat="43.51958" lon="6.30321">
        <ele>291.2</ele>
        <time>2019-03-27T14:42:02Z</time>
      </trkpt>
      <trkpt lat="43.51958" lon="6.30335">
        <ele>291.8</ele>
        <time>2019-03-27T14:42:12Z</time>
      </trkpt>
      <trkpt lat="43.51954" lon="6.30347">
        <ele>292.3</ele>
        <time>2019-03-27T14:42:22Z</time>
      </trkpt>
      <trkpt lat="43.51951" lon="6.30359">
        <ele>293.1</ele>
        <time>2019-03-27T14:42:32Z</time>
      </trkpt>
      <trkpt lat="43.51951" lon="6.30372">
        <ele>293.6</ele>
        <time>2019-03-27T14:42:43Z</time>
      </trkpt>
      <trkpt lat="43.51949" lon="6.30384">
        <ele>293.9</ele>
        <time>2019-03-27T14:42:52Z</time>
      </trkpt>
      <trkpt lat="43.51942" lon="6.30393">
        <ele>294.1</ele>
        <time>2019-03-27T14:43:01Z</time>
      </trkpt>
      <trkpt lat="43.51934" lon="6.30401">
        <ele>294.6</ele>
        <time>2019-03-27T14:43:09Z</time>
      </trkpt>
      <trkpt lat="43.51927" lon="6.3041">
        <ele>295</ele>
        <time>2019-03-27T14:43:18Z</time>
      </trkpt>
      <trkpt lat="43.51921" lon="6.30421">
        <ele>295.5</ele>
        <time>2019-03-27T14:43:27Z</time>
      </trkpt>
      <trkpt lat="43.51919" lon="6.30433">
        <ele>296.5</ele>
        <time>2019-03-27T14:43:47Z</time>
      </trkpt>
      <trkpt lat="43.51914" lon="6.30445">
        <ele>297.4</ele>
        <time>2019-03-27T14:43:58Z</time>
      </trkpt>
      <trkpt lat="43.51908" lon="6.30456">
        <ele>297.9</ele>
        <time>2019-03-27T14:44:05Z</time>
      </trkpt>
      <trkpt lat="43.51904" lon="6.30468">
        <ele>298.5</ele>
        <time>2019-03-27T14:44:14Z</time>
      </trkpt>
      <trkpt lat="43.51901" lon="6.3048">
        <ele>299.2</ele>
        <time>2019-03-27T14:44:23Z</time>
      </trkpt>
      <trkpt lat="43.51899" lon="6.30494">
        <ele>299.7</ele>
        <time>2019-03-27T14:44:33Z</time>
      </trkpt>
      <trkpt lat="43.51899" lon="6.30507">
        <ele>300.3</ele>
        <time>2019-03-27T14:44:42Z</time>
      </trkpt>
      <trkpt lat="43.51899" lon="6.30521">
        <ele>301</ele>
        <time>2019-03-27T14:44:51Z</time>
      </trkpt>
      <trkpt lat="43.51897" lon="6.30534">
        <ele>301.6</ele>
        <time>2019-03-27T14:45:00Z</time>
      </trkpt>
      <trkpt lat="43.51894" lon="6.30546">
        <ele>302.5</ele>
        <time>2019-03-27T14:45:08Z</time>
      </trkpt>
      <trkpt lat="43.519" lon="6.30557">
        <ele>303.1</ele>
        <time>2019-03-27T14:45:16Z</time>
      </trkpt>
      <trkpt lat="43.51901" lon="6.3057">
        <ele>303.8</ele>
        <time>2019-03-27T14:45:26Z</time>
      </trkpt>
      <trkpt lat="43.51901" lon="6.30583">
        <ele>304.4</ele>
        <time>2019-03-27T14:45:36Z</time>
      </trkpt>
      <trkpt lat="43.51903" lon="6.30595">
        <ele>305.3</ele>
        <time>2019-03-27T14:45:45Z</time>
      </trkpt>
      <trkpt lat="43.51904" lon="6.30608">
        <ele>306.1</ele>
        <time>2019-03-27T14:45:55Z</time>
      </trkpt>
      <trkpt lat="43.51903" lon="6.30621">
        <ele>306.5</ele>
        <time>2019-03-27T14:46:03Z</time>
      </trkpt>
      <trkpt lat="43.51904" lon="6.30634">
        <ele>307</ele>
        <time>2019-03-27T14:46:13Z</time>
      </trkpt>
      <trkpt lat="43.519" lon="6.30647">
        <ele>307.3</ele>
        <time>2019-03-27T14:46:22Z</time>
      </trkpt>
      <trkpt lat="43.51897" lon="6.3066">
        <ele>307.6</ele>
        <time>2019-03-27T14:46:30Z</time>
      </trkpt>
      <trkpt lat="43.51894" lon="6.30672">
        <ele>307.9</ele>
        <time>2019-03-27T14:46:40Z</time>
      </trkpt>
      <trkpt lat="43.51891" lon="6.30684">
        <ele>308.2</ele>
        <time>2019-03-27T14:46:50Z</time>
      </trkpt>
      <trkpt lat="43.51885" lon="6.30696">
        <ele>308.4</ele>
        <time>2019-03-27T14:47:00Z</time>
      </trkpt>
      <trkpt lat="43.51879" lon="6.30707">
        <ele>308.5</ele>
        <time>2019-03-27T14:47:09Z</time>
      </trkpt>
      <trkpt lat="43.5188" lon="6.3072">
        <ele>308.6</ele>
        <time>2019-03-27T14:47:16Z</time>
      </trkpt>
      <trkpt lat="43.51886" lon="6.30729">
        <ele>308.8</ele>
        <time>2019-03-27T14:47:31Z</time>
      </trkpt>
      <trkpt lat="43.51889" lon="6.30741">
        <ele>309</ele>
        <time>2019-03-27T14:47:41Z</time>
      </trkpt>
      <trkpt lat="43.51888" lon="6.30756">
        <ele>308.9</ele>
        <time>2019-03-27T14:47:51Z</time>
      </trkpt>
      <trkpt lat="43.51883" lon="6.30774">
        <ele>308</ele>
        <time>2019-03-27T14:48:02Z</time>
      </trkpt>
      <trkpt lat="43.51886" lon="6.30791">
        <ele>308.7</ele>
        <time>2019-03-27T14:48:13Z</time>
      </trkpt>
      <trkpt lat="43.51878" lon="6.30812">
        <ele>307</ele>
        <time>2019-03-27T14:48:26Z</time>
      </trkpt>
      <trkpt lat="43.51875" lon="6.30824">
        <ele>307.6</ele>
        <time>2019-03-27T14:48:33Z</time>
      </trkpt>
      <trkpt lat="43.51869" lon="6.30834">
        <ele>307.3</ele>
        <time>2019-03-27T14:48:44Z</time>
      </trkpt>
      <trkpt lat="43.51861" lon="6.30842">
        <ele>307.1</ele>
        <time>2019-03-27T14:48:52Z</time>
      </trkpt>
      <trkpt lat="43.51856" lon="6.30855">
        <ele>307.1</ele>
        <time>2019-03-27T14:49:01Z</time>
      </trkpt>
      <trkpt lat="43.5185" lon="6.30867">
        <ele>307.3</ele>
        <time>2019-03-27T14:49:09Z</time>
      </trkpt>
      <trkpt lat="43.51847" lon="6.3088">
        <ele>307.5</ele>
        <time>2019-03-27T14:49:19Z</time>
      </trkpt>
      <trkpt lat="43.51846" lon="6.30894">
        <ele>307.5</ele>
        <time>2019-03-27T14:49:27Z</time>
      </trkpt>
      <trkpt lat="43.51839" lon="6.30903">
        <ele>307.7</ele>
        <time>2019-03-27T14:49:33Z</time>
      </trkpt>
      <trkpt lat="43.51835" lon="6.30914">
        <ele>308</ele>
        <time>2019-03-27T14:49:42Z</time>
      </trkpt>
      <trkpt lat="43.51832" lon="6.30927">
        <ele>308</ele>
        <time>2019-03-27T14:49:52Z</time>
      </trkpt>
      <trkpt lat="43.51828" lon="6.30939">
        <ele>308.3</ele>
        <time>2019-03-27T14:50:37Z</time>
      </trkpt>
      <trkpt lat="43.51822" lon="6.30949">
        <ele>308.2</ele>
        <time>2019-03-27T14:50:50Z</time>
      </trkpt>
      <trkpt lat="43.51813" lon="6.30952">
        <ele>307.9</ele>
        <time>2019-03-27T14:51:01Z</time>
      </trkpt>
      <trkpt lat="43.51803" lon="6.30955">
        <ele>307.7</ele>
        <time>2019-03-27T14:51:11Z</time>
      </trkpt>
      <trkpt lat="43.51794" lon="6.30952">
        <ele>307.8</ele>
        <time>2019-03-27T14:51:21Z</time>
      </trkpt>
      <trkpt lat="43.51788" lon="6.30942">
        <ele>308</ele>
        <time>2019-03-27T14:51:31Z</time>
      </trkpt>
      <trkpt lat="43.5178" lon="6.30934">
        <ele>308.5</ele>
        <time>2019-03-27T14:51:41Z</time>
      </trkpt>
      <trkpt lat="43.51776" lon="6.30923">
        <ele>309</ele>
        <time>2019-03-27T14:51:51Z</time>
      </trkpt>
      <trkpt lat="43.5177" lon="6.30913">
        <ele>309.5</ele>
        <time>2019-03-27T14:51:59Z</time>
      </trkpt>
      <trkpt lat="43.51768" lon="6.309">
        <ele>309.7</ele>
        <time>2019-03-27T14:52:07Z</time>
      </trkpt>
      <trkpt lat="43.51768" lon="6.30886">
        <ele>309.7</ele>
        <time>2019-03-27T14:52:16Z</time>
      </trkpt>
      <trkpt lat="43.51768" lon="6.30874">
        <ele>309.9</ele>
        <time>2019-03-27T14:52:25Z</time>
      </trkpt>
      <trkpt lat="43.51767" lon="6.30861">
        <ele>310</ele>
        <time>2019-03-27T14:52:33Z</time>
      </trkpt>
      <trkpt lat="43.51765" lon="6.30848">
        <ele>310.1</ele>
        <time>2019-03-27T14:52:41Z</time>
      </trkpt>
      <trkpt lat="43.51759" lon="6.30839">
        <ele>310</ele>
        <time>2019-03-27T14:52:51Z</time>
      </trkpt>
      <trkpt lat="43.51755" lon="6.30826">
        <ele>310</ele>
        <time>2019-03-27T14:53:01Z</time>
      </trkpt>
      <trkpt lat="43.51752" lon="6.30813">
        <ele>309.9</ele>
        <time>2019-03-27T14:53:09Z</time>
      </trkpt>
      <trkpt lat="43.51753" lon="6.308">
        <ele>309.9</ele>
        <time>2019-03-27T14:53:19Z</time>
      </trkpt>
      <trkpt lat="43.51754" lon="6.30787">
        <ele>309.8</ele>
        <time>2019-03-27T14:53:28Z</time>
      </trkpt>
      <trkpt lat="43.51753" lon="6.30773">
        <ele>309.7</ele>
        <time>2019-03-27T14:53:38Z</time>
      </trkpt>
      <trkpt lat="43.51753" lon="6.3076">
        <ele>309.3</ele>
        <time>2019-03-27T14:53:48Z</time>
      </trkpt>
      <trkpt lat="43.51753" lon="6.30747">
        <ele>309.3</ele>
        <time>2019-03-27T14:53:56Z</time>
      </trkpt>
      <trkpt lat="43.51752" lon="6.30734">
        <ele>309</ele>
        <time>2019-03-27T14:54:05Z</time>
      </trkpt>
      <trkpt lat="43.5175" lon="6.30721">
        <ele>308.5</ele>
        <time>2019-03-27T14:54:14Z</time>
      </trkpt>
      <trkpt lat="43.51745" lon="6.3071">
        <ele>307.8</ele>
        <time>2019-03-27T14:54:26Z</time>
      </trkpt>
      <trkpt lat="43.51737" lon="6.30704">
        <ele>306.8</ele>
        <time>2019-03-27T14:54:37Z</time>
      </trkpt>
      <trkpt lat="43.51728" lon="6.30701">
        <ele>306.5</ele>
        <time>2019-03-27T14:54:46Z</time>
      </trkpt>
      <trkpt lat="43.51718" lon="6.30697">
        <ele>305.8</ele>
        <time>2019-03-27T14:54:57Z</time>
      </trkpt>
      <trkpt lat="43.51709" lon="6.30697">
        <ele>305.5</ele>
        <time>2019-03-27T14:55:03Z</time>
      </trkpt>
      <trkpt lat="43.517" lon="6.30693">
        <ele>305.4</ele>
        <time>2019-03-27T14:55:10Z</time>
      </trkpt>
      <trkpt lat="43.51691" lon="6.30689">
        <ele>305.6</ele>
        <time>2019-03-27T14:55:18Z</time>
      </trkpt>
      <trkpt lat="43.51681" lon="6.30686">
        <ele>305.9</ele>
        <time>2019-03-27T14:55:28Z</time>
      </trkpt>
      <trkpt lat="43.51674" lon="6.30677">
        <ele>306.3</ele>
        <time>2019-03-27T14:55:40Z</time>
      </trkpt>
      <trkpt lat="43.51664" lon="6.30673">
        <ele>306.4</ele>
        <time>2019-03-27T14:55:46Z</time>
      </trkpt>
      <trkpt lat="43.51655" lon="6.30669">
        <ele>306.5</ele>
        <time>2019-03-27T14:55:58Z</time>
      </trkpt>
      <trkpt lat="43.51648" lon="6.30661">
        <ele>306.9</ele>
        <time>2019-03-27T14:56:09Z</time>
      </trkpt>
      <trkpt lat="43.5164" lon="6.30655">
        <ele>307.8</ele>
        <time>2019-03-27T14:56:21Z</time>
      </trkpt>
      <trkpt lat="43.51631" lon="6.30658">
        <ele>308.3</ele>
        <time>2019-03-27T14:56:31Z</time>
      </trkpt>
      <trkpt lat="43.51616" lon="6.30658">
        <ele>310.1</ele>
        <time>2019-03-27T15:03:31Z</time>
      </trkpt>
      <trkpt lat="43.51611" lon="6.30669">
        <ele>309.9</ele>
        <time>2019-03-27T15:03:46Z</time>
      </trkpt>
      <trkpt lat="43.5162" lon="6.30672">
        <ele>310.1</ele>
        <time>2019-03-27T15:04:21Z</time>
      </trkpt>
      <trkpt lat="43.51624" lon="6.30683">
        <ele>310.4</ele>
        <time>2019-03-27T15:04:32Z</time>
      </trkpt>
      <trkpt lat="43.51628" lon="6.30695">
        <ele>309.8</ele>
        <time>2019-03-27T15:04:49Z</time>
      </trkpt>
      <trkpt lat="43.51633" lon="6.30706">
        <ele>310.3</ele>
        <time>2019-03-27T15:05:01Z</time>
      </trkpt>
      <trkpt lat="43.51638" lon="6.30717">
        <ele>310.7</ele>
        <time>2019-03-27T15:05:23Z</time>
      </trkpt>
      <trkpt lat="43.51638" lon="6.3073">
        <ele>310.6</ele>
        <time>2019-03-27T15:05:33Z</time>
      </trkpt>
      <trkpt lat="43.51644" lon="6.3074">
        <ele>311.2</ele>
        <time>2019-03-27T15:05:50Z</time>
      </trkpt>
      <trkpt lat="43.51647" lon="6.30752">
        <ele>311.6</ele>
        <time>2019-03-27T15:05:59Z</time>
      </trkpt>
      <trkpt lat="43.5165" lon="6.30765">
        <ele>311.5</ele>
        <time>2019-03-27T15:06:08Z</time>
      </trkpt>
      <trkpt lat="43.51655" lon="6.30776">
        <ele>312</ele>
        <time>2019-03-27T15:06:18Z</time>
      </trkpt>
      <trkpt lat="43.51656" lon="6.3079">
        <ele>312.6</ele>
        <time>2019-03-27T15:06:32Z</time>
      </trkpt>
      <trkpt lat="43.51661" lon="6.308">
        <ele>313.1</ele>
        <time>2019-03-27T15:06:42Z</time>
      </trkpt>
      <trkpt lat="43.51665" lon="6.30812">
        <ele>313</ele>
        <time>2019-03-27T15:06:51Z</time>
      </trkpt>
      <trkpt lat="43.51669" lon="6.30824">
        <ele>312.8</ele>
        <time>2019-03-27T15:06:59Z</time>
      </trkpt>
      <trkpt lat="43.51672" lon="6.30837">
        <ele>312.9</ele>
        <time>2019-03-27T15:07:08Z</time>
      </trkpt>
      <trkpt lat="43.51675" lon="6.3085">
        <ele>313.2</ele>
        <time>2019-03-27T15:07:18Z</time>
      </trkpt>
      <trkpt lat="43.51676" lon="6.30863">
        <ele>313.5</ele>
        <time>2019-03-27T15:07:26Z</time>
      </trkpt>
      <trkpt lat="43.51678" lon="6.30876">
        <ele>313.5</ele>
        <time>2019-03-27T15:07:38Z</time>
      </trkpt>
      <trkpt lat="43.51681" lon="6.3089">
        <ele>314</ele>
        <time>2019-03-27T15:07:48Z</time>
      </trkpt>
      <trkpt lat="43.51682" lon="6.30903">
        <ele>314.6</ele>
        <time>2019-03-27T15:08:00Z</time>
      </trkpt>
      <trkpt lat="43.51686" lon="6.30915">
        <ele>314.3</ele>
        <time>2019-03-27T15:08:10Z</time>
      </trkpt>
      <trkpt lat="43.5169" lon="6.30927">
        <ele>314.4</ele>
        <time>2019-03-27T15:08:16Z</time>
      </trkpt>
      <trkpt lat="43.51695" lon="6.30938">
        <ele>314.8</ele>
        <time>2019-03-27T15:08:25Z</time>
      </trkpt>
      <trkpt lat="43.51697" lon="6.3095">
        <ele>315</ele>
        <time>2019-03-27T15:08:31Z</time>
      </trkpt>
      <trkpt lat="43.51699" lon="6.30964">
        <ele>314.9</ele>
        <time>2019-03-27T15:08:38Z</time>
      </trkpt>
      <trkpt lat="43.51701" lon="6.30976">
        <ele>315</ele>
        <time>2019-03-27T15:08:46Z</time>
      </trkpt>
      <trkpt lat="43.51704" lon="6.30989">
        <ele>314.8</ele>
        <time>2019-03-27T15:08:56Z</time>
      </trkpt>
      <trkpt lat="43.51708" lon="6.31001">
        <ele>314.5</ele>
        <time>2019-03-27T15:09:08Z</time>
      </trkpt>
      <trkpt lat="43.51709" lon="6.31013">
        <ele>314.2</ele>
        <time>2019-03-27T15:09:16Z</time>
      </trkpt>
      <trkpt lat="43.51711" lon="6.31027">
        <ele>314.1</ele>
        <time>2019-03-27T15:09:24Z</time>
      </trkpt>
      <trkpt lat="43.51713" lon="6.31039">
        <ele>314.1</ele>
        <time>2019-03-27T15:09:32Z</time>
      </trkpt>
      <trkpt lat="43.51717" lon="6.3105">
        <ele>314.2</ele>
        <time>2019-03-27T15:09:42Z</time>
      </trkpt>
      <trkpt lat="43.51719" lon="6.31063">
        <ele>313.1</ele>
        <time>2019-03-27T15:10:00Z</time>
      </trkpt>
      <trkpt lat="43.51715" lon="6.31073">
        <ele>312.6</ele>
        <time>2019-03-27T15:10:23Z</time>
      </trkpt>
      <trkpt lat="43.51706" lon="6.31078">
        <ele>312.1</ele>
        <time>2019-03-27T15:10:55Z</time>
      </trkpt>
      <trkpt lat="43.51698" lon="6.31084">
        <ele>310.5</ele>
        <time>2019-03-27T15:12:13Z</time>
      </trkpt>
      <trkpt lat="43.5169" lon="6.31089">
        <ele>310.4</ele>
        <time>2019-03-27T15:12:25Z</time>
      </trkpt>
      <trkpt lat="43.51681" lon="6.31095">
        <ele>310.5</ele>
        <time>2019-03-27T15:12:37Z</time>
      </trkpt>
      <trkpt lat="43.51673" lon="6.31101">
        <ele>310.1</ele>
        <time>2019-03-27T15:12:46Z</time>
      </trkpt>
      <trkpt lat="43.51664" lon="6.31105">
        <ele>309.4</ele>
        <time>2019-03-27T15:13:02Z</time>
      </trkpt>
      <trkpt lat="43.51659" lon="6.31118">
        <ele>308</ele>
        <time>2019-03-27T15:14:15Z</time>
      </trkpt>
      <trkpt lat="43.51649" lon="6.31121">
        <ele>307.2</ele>
        <time>2019-03-27T15:14:38Z</time>
      </trkpt>
      <trkpt lat="43.5164" lon="6.31125">
        <ele>306.8</ele>
        <time>2019-03-27T15:14:47Z</time>
      </trkpt>
      <trkpt lat="43.5163" lon="6.31129">
        <ele>306.6</ele>
        <time>2019-03-27T15:14:53Z</time>
      </trkpt>
      <trkpt lat="43.51621" lon="6.31133">
        <ele>306.4</ele>
        <time>2019-03-27T15:15:00Z</time>
      </trkpt>
      <trkpt lat="43.51612" lon="6.31139">
        <ele>305</ele>
        <time>2019-03-27T15:15:08Z</time>
      </trkpt>
      <trkpt lat="43.51603" lon="6.31147">
        <ele>304.9</ele>
        <time>2019-03-27T15:15:15Z</time>
      </trkpt>
      <trkpt lat="43.51595" lon="6.31153">
        <ele>304.9</ele>
        <time>2019-03-27T15:15:23Z</time>
      </trkpt>
      <trkpt lat="43.51587" lon="6.31158">
        <ele>304.9</ele>
        <time>2019-03-27T15:15:30Z</time>
      </trkpt>
      <trkpt lat="43.51577" lon="6.31164">
        <ele>305.1</ele>
        <time>2019-03-27T15:15:39Z</time>
      </trkpt>
      <trkpt lat="43.51568" lon="6.31168">
        <ele>304.9</ele>
        <time>2019-03-27T15:15:48Z</time>
      </trkpt>
      <trkpt lat="43.51561" lon="6.31177">
        <ele>305</ele>
        <time>2019-03-27T15:15:54Z</time>
      </trkpt>
      <trkpt lat="43.51556" lon="6.31189">
        <ele>305</ele>
        <time>2019-03-27T15:16:01Z</time>
      </trkpt>
      <trkpt lat="43.5155" lon="6.31199">
        <ele>304.8</ele>
        <time>2019-03-27T15:16:09Z</time>
      </trkpt>
      <trkpt lat="43.51543" lon="6.31209">
        <ele>303.8</ele>
        <time>2019-03-27T15:16:17Z</time>
      </trkpt>
      <trkpt lat="43.51537" lon="6.3122">
        <ele>303.2</ele>
        <time>2019-03-27T15:16:24Z</time>
      </trkpt>
      <trkpt lat="43.51529" lon="6.31228">
        <ele>302.8</ele>
        <time>2019-03-27T15:16:30Z</time>
      </trkpt>
      <trkpt lat="43.51521" lon="6.31236">
        <ele>302.3</ele>
        <time>2019-03-27T15:16:38Z</time>
      </trkpt>
      <trkpt lat="43.51513" lon="6.31244">
        <ele>302.2</ele>
        <time>2019-03-27T15:16:46Z</time>
      </trkpt>
      <trkpt lat="43.51505" lon="6.31249">
        <ele>301</ele>
        <time>2019-03-27T15:16:54Z</time>
      </trkpt>
      <trkpt lat="43.51495" lon="6.31255">
        <ele>301</ele>
        <time>2019-03-27T15:17:01Z</time>
      </trkpt>
      <trkpt lat="43.51486" lon="6.31259">
        <ele>300.9</ele>
        <time>2019-03-27T15:17:08Z</time>
      </trkpt>
      <trkpt lat="43.51477" lon="6.31262">
        <ele>300.4</ele>
        <time>2019-03-27T15:17:17Z</time>
      </trkpt>
      <trkpt lat="43.51468" lon="6.31263">
        <ele>300.2</ele>
        <time>2019-03-27T15:17:26Z</time>
      </trkpt>
      <trkpt lat="43.51459" lon="6.31261">
        <ele>299.3</ele>
        <time>2019-03-27T15:17:37Z</time>
      </trkpt>
      <trkpt lat="43.51454" lon="6.31272">
        <ele>299.7</ele>
        <time>2019-03-27T15:18:04Z</time>
      </trkpt>
      <trkpt lat="43.51455" lon="6.31284">
        <ele>298.6</ele>
        <time>2019-03-27T15:18:14Z</time>
      </trkpt>
      <trkpt lat="43.51461" lon="6.31294">
        <ele>298.8</ele>
        <time>2019-03-27T15:18:28Z</time>
      </trkpt>
      <trkpt lat="43.51464" lon="6.31306">
        <ele>299.5</ele>
        <time>2019-03-27T15:18:42Z</time>
      </trkpt>
      <trkpt lat="43.51461" lon="6.31318">
        <ele>300.4</ele>
        <time>2019-03-27T15:18:56Z</time>
      </trkpt>
      <trkpt lat="43.51456" lon="6.31329">
        <ele>300.6</ele>
        <time>2019-03-27T15:19:07Z</time>
      </trkpt>
      <trkpt lat="43.51449" lon="6.31342">
        <ele>301.2</ele>
        <time>2019-03-27T15:19:18Z</time>
      </trkpt>
      <trkpt lat="43.5144" lon="6.31345">
        <ele>301.6</ele>
        <time>2019-03-27T15:19:26Z</time>
      </trkpt>
      <trkpt lat="43.51431" lon="6.31352">
        <ele>302</ele>
        <time>2019-03-27T15:19:32Z</time>
      </trkpt>
      <trkpt lat="43.51432" lon="6.31366">
        <ele>303.1</ele>
        <time>2019-03-27T15:19:46Z</time>
      </trkpt>
      <trkpt lat="43.51428" lon="6.31377">
        <ele>303.9</ele>
        <time>2019-03-27T15:19:56Z</time>
      </trkpt>
      <trkpt lat="43.51428" lon="6.3139">
        <ele>305</ele>
        <time>2019-03-27T15:20:07Z</time>
      </trkpt>
      <trkpt lat="43.51422" lon="6.31401">
        <ele>307.1</ele>
        <time>2019-03-27T15:20:56Z</time>
      </trkpt>
      <trkpt lat="43.51415" lon="6.31409">
        <ele>307.3</ele>
        <time>2019-03-27T15:21:13Z</time>
      </trkpt>
      <trkpt lat="43.51405" lon="6.31409">
        <ele>307.3</ele>
        <time>2019-03-27T15:22:09Z</time>
      </trkpt>
      <trkpt lat="43.51408" lon="6.31421">
        <ele>307.8</ele>
        <time>2019-03-27T15:22:18Z</time>
      </trkpt>
      <trkpt lat="43.51402" lon="6.31431">
        <ele>308.3</ele>
        <time>2019-03-27T15:22:27Z</time>
      </trkpt>
      <trkpt lat="43.51394" lon="6.31438">
        <ele>308.9</ele>
        <time>2019-03-27T15:22:38Z</time>
      </trkpt>
      <trkpt lat="43.51386" lon="6.31446">
        <ele>309.5</ele>
        <time>2019-03-27T15:22:44Z</time>
      </trkpt>
      <trkpt lat="43.51378" lon="6.31453">
        <ele>310.4</ele>
        <time>2019-03-27T15:22:54Z</time>
      </trkpt>
      <trkpt lat="43.51369" lon="6.31459">
        <ele>311.2</ele>
        <time>2019-03-27T15:23:02Z</time>
      </trkpt>
      <trkpt lat="43.5136" lon="6.31463">
        <ele>311.4</ele>
        <time>2019-03-27T15:23:13Z</time>
      </trkpt>
      <trkpt lat="43.5135" lon="6.31462">
        <ele>311.4</ele>
        <time>2019-03-27T15:23:18Z</time>
      </trkpt>
      <trkpt lat="43.51343" lon="6.31469">
        <ele>312.3</ele>
        <time>2019-03-27T15:23:27Z</time>
      </trkpt>
      <trkpt lat="43.51334" lon="6.31469">
        <ele>313.6</ele>
        <time>2019-03-27T15:23:42Z</time>
      </trkpt>
      <trkpt lat="43.51324" lon="6.3147">
        <ele>314.7</ele>
        <time>2019-03-27T15:23:51Z</time>
      </trkpt>
      <trkpt lat="43.51315" lon="6.31467">
        <ele>315.7</ele>
        <time>2019-03-27T15:24:00Z</time>
      </trkpt>
      <trkpt lat="43.51305" lon="6.31467">
        <ele>316.9</ele>
        <time>2019-03-27T15:24:09Z</time>
      </trkpt>
      <trkpt lat="43.51296" lon="6.31467">
        <ele>318.2</ele>
        <time>2019-03-27T15:24:17Z</time>
      </trkpt>
      <trkpt lat="43.51287" lon="6.31466">
        <ele>319.3</ele>
        <time>2019-03-27T15:24:26Z</time>
      </trkpt>
      <trkpt lat="43.51278" lon="6.31465">
        <ele>320.3</ele>
        <time>2019-03-27T15:24:35Z</time>
      </trkpt>
      <trkpt lat="43.51269" lon="6.31461">
        <ele>320.8</ele>
        <time>2019-03-27T15:24:41Z</time>
      </trkpt>
      <trkpt lat="43.51259" lon="6.3146">
        <ele>321.4</ele>
        <time>2019-03-27T15:24:52Z</time>
      </trkpt>
      <trkpt lat="43.51249" lon="6.31463">
        <ele>322.2</ele>
        <time>2019-03-27T15:25:00Z</time>
      </trkpt>
      <trkpt lat="43.51239" lon="6.31463">
        <ele>322.8</ele>
        <time>2019-03-27T15:25:08Z</time>
      </trkpt>
      <trkpt lat="43.5123" lon="6.31462">
        <ele>322.7</ele>
        <time>2019-03-27T15:25:15Z</time>
      </trkpt>
      <trkpt lat="43.51221" lon="6.31464">
        <ele>322.8</ele>
        <time>2019-03-27T15:25:24Z</time>
      </trkpt>
      <trkpt lat="43.51212" lon="6.31463">
        <ele>322.9</ele>
        <time>2019-03-27T15:25:33Z</time>
      </trkpt>
      <trkpt lat="43.51202" lon="6.31463">
        <ele>322.1</ele>
        <time>2019-03-27T15:25:41Z</time>
      </trkpt>
      <trkpt lat="43.51193" lon="6.31462">
        <ele>321.5</ele>
        <time>2019-03-27T15:25:48Z</time>
      </trkpt>
      <trkpt lat="43.51184" lon="6.3146">
        <ele>320.9</ele>
        <time>2019-03-27T15:25:55Z</time>
      </trkpt>
      <trkpt lat="43.51174" lon="6.31457">
        <ele>319.9</ele>
        <time>2019-03-27T15:26:02Z</time>
      </trkpt>
      <trkpt lat="43.51165" lon="6.31457">
        <ele>319.2</ele>
        <time>2019-03-27T15:26:09Z</time>
      </trkpt>
      <trkpt lat="43.51155" lon="6.31459">
        <ele>318.3</ele>
        <time>2019-03-27T15:26:30Z</time>
      </trkpt>
      <trkpt lat="43.51146" lon="6.31464">
        <ele>317.4</ele>
        <time>2019-03-27T15:27:45Z</time>
      </trkpt>
      <trkpt lat="43.51137" lon="6.31457">
        <ele>317</ele>
        <time>2019-03-27T15:27:57Z</time>
      </trkpt>
      <trkpt lat="43.51129" lon="6.3145">
        <ele>316.8</ele>
        <time>2019-03-27T15:28:04Z</time>
      </trkpt>
      <trkpt lat="43.51122" lon="6.31441">
        <ele>316.1</ele>
        <time>2019-03-27T15:28:15Z</time>
      </trkpt>
      <trkpt lat="43.51118" lon="6.31429">
        <ele>315.9</ele>
        <time>2019-03-27T15:28:23Z</time>
      </trkpt>
      <trkpt lat="43.51109" lon="6.31424">
        <ele>315.8</ele>
        <time>2019-03-27T15:28:34Z</time>
      </trkpt>
      <trkpt lat="43.51105" lon="6.31412">
        <ele>315.7</ele>
        <time>2019-03-27T15:28:45Z</time>
      </trkpt>
      <trkpt lat="43.51097" lon="6.31407">
        <ele>315.7</ele>
        <time>2019-03-27T15:28:51Z</time>
      </trkpt>
      <trkpt lat="43.51088" lon="6.31393">
        <ele>315</ele>
        <time>2019-03-27T15:29:04Z</time>
      </trkpt>
      <trkpt lat="43.51081" lon="6.31385">
        <ele>314.6</ele>
        <time>2019-03-27T15:29:14Z</time>
      </trkpt>
      <trkpt lat="43.51075" lon="6.31375">
        <ele>314.1</ele>
        <time>2019-03-27T15:29:25Z</time>
      </trkpt>
      <trkpt lat="43.5107" lon="6.31364">
        <ele>313.3</ele>
        <time>2019-03-27T15:29:36Z</time>
      </trkpt>
      <trkpt lat="43.51065" lon="6.31354">
        <ele>312.7</ele>
        <time>2019-03-27T15:29:44Z</time>
      </trkpt>
      <trkpt lat="43.51057" lon="6.31347">
        <ele>311.6</ele>
        <time>2019-03-27T15:29:55Z</time>
      </trkpt>
      <trkpt lat="43.51049" lon="6.3134">
        <ele>310.4</ele>
        <time>2019-03-27T15:30:08Z</time>
      </trkpt>
      <trkpt lat="43.51042" lon="6.31332">
        <ele>309.5</ele>
        <time>2019-03-27T15:30:19Z</time>
      </trkpt>
      <trkpt lat="43.51037" lon="6.31321">
        <ele>308.9</ele>
        <time>2019-03-27T15:30:27Z</time>
      </trkpt>
      <trkpt lat="43.51035" lon="6.31309">
        <ele>308.1</ele>
        <time>2019-03-27T15:30:38Z</time>
      </trkpt>
      <trkpt lat="43.51026" lon="6.31298">
        <ele>307.4</ele>
        <time>2019-03-27T15:30:48Z</time>
      </trkpt>
      <trkpt lat="43.51018" lon="6.31305">
        <ele>306.9</ele>
        <time>2019-03-27T15:31:04Z</time>
      </trkpt>
      <trkpt lat="43.51014" lon="6.31318">
        <ele>306.6</ele>
        <time>2019-03-27T15:31:11Z</time>
      </trkpt>
      <trkpt lat="43.51007" lon="6.31328">
        <ele>306.5</ele>
        <time>2019-03-27T15:31:17Z</time>
      </trkpt>
      <trkpt lat="43.51" lon="6.31335">
        <ele>306.3</ele>
        <time>2019-03-27T15:31:27Z</time>
      </trkpt>
      <trkpt lat="43.50992" lon="6.31342">
        <ele>306.2</ele>
        <time>2019-03-27T15:31:35Z</time>
      </trkpt>
      <trkpt lat="43.50987" lon="6.31353">
        <ele>306.1</ele>
        <time>2019-03-27T15:31:45Z</time>
      </trkpt>
      <trkpt lat="43.50983" lon="6.31364">
        <ele>306.3</ele>
        <time>2019-03-27T15:31:51Z</time>
      </trkpt>
      <trkpt lat="43.50977" lon="6.31375">
        <ele>306.5</ele>
        <time>2019-03-27T15:32:03Z</time>
      </trkpt>
      <trkpt lat="43.50973" lon="6.31388">
        <ele>306.5</ele>
        <time>2019-03-27T15:32:08Z</time>
      </trkpt>
      <trkpt lat="43.50969" lon="6.314">
        <ele>306.4</ele>
        <time>2019-03-27T15:32:18Z</time>
      </trkpt>
      <trkpt lat="43.50963" lon="6.3141">
        <ele>306.6</ele>
        <time>2019-03-27T15:32:27Z</time>
      </trkpt>
      <trkpt lat="43.50957" lon="6.31419">
        <ele>307.1</ele>
        <time>2019-03-27T15:32:35Z</time>
      </trkpt>
      <trkpt lat="43.5095" lon="6.31429">
        <ele>307</ele>
        <time>2019-03-27T15:32:41Z</time>
      </trkpt>
      <trkpt lat="43.50943" lon="6.31437">
        <ele>306.9</ele>
        <time>2019-03-27T15:32:49Z</time>
      </trkpt>
      <trkpt lat="43.50934" lon="6.31439">
        <ele>307</ele>
        <time>2019-03-27T15:33:11Z</time>
      </trkpt>
      <trkpt lat="43.50934" lon="6.31452">
        <ele>307.1</ele>
        <time>2019-03-27T15:33:26Z</time>
      </trkpt>
      <trkpt lat="43.50938" lon="6.31463">
        <ele>307.4</ele>
        <time>2019-03-27T15:33:37Z</time>
      </trkpt>
      <trkpt lat="43.50943" lon="6.31474">
        <ele>307.3</ele>
        <time>2019-03-27T15:33:47Z</time>
      </trkpt>
      <trkpt lat="43.50946" lon="6.31487">
        <ele>307.1</ele>
        <time>2019-03-27T15:33:56Z</time>
      </trkpt>
      <trkpt lat="43.50952" lon="6.31495">
        <ele>307</ele>
        <time>2019-03-27T15:34:05Z</time>
      </trkpt>
      <trkpt lat="43.50958" lon="6.31506">
        <ele>307.1</ele>
        <time>2019-03-27T15:34:13Z</time>
      </trkpt>
      <trkpt lat="43.50963" lon="6.31517">
        <ele>307.6</ele>
        <time>2019-03-27T15:34:26Z</time>
      </trkpt>
      <trkpt lat="43.50965" lon="6.3153">
        <ele>307.8</ele>
        <time>2019-03-27T15:34:40Z</time>
      </trkpt>
      <trkpt lat="43.50967" lon="6.31544">
        <ele>307.9</ele>
        <time>2019-03-27T15:34:50Z</time>
      </trkpt>
      <trkpt lat="43.50969" lon="6.31556">
        <ele>308</ele>
        <time>2019-03-27T15:35:00Z</time>
      </trkpt>
      <trkpt lat="43.50974" lon="6.31567">
        <ele>308.1</ele>
        <time>2019-03-27T15:35:08Z</time>
      </trkpt>
      <trkpt lat="43.50978" lon="6.31578">
        <ele>307.9</ele>
        <time>2019-03-27T15:35:17Z</time>
      </trkpt>
      <trkpt lat="43.50977" lon="6.31591">
        <ele>308.2</ele>
        <time>2019-03-27T15:35:27Z</time>
      </trkpt>
      <trkpt lat="43.50978" lon="6.31604">
        <ele>309</ele>
        <time>2019-03-27T15:35:36Z</time>
      </trkpt>
      <trkpt lat="43.50983" lon="6.31614">
        <ele>309.6</ele>
        <time>2019-03-27T15:35:47Z</time>
      </trkpt>
      <trkpt lat="43.50988" lon="6.31626">
        <ele>310.5</ele>
        <time>2019-03-27T15:35:58Z</time>
      </trkpt>
      <trkpt lat="43.50994" lon="6.31637">
        <ele>311</ele>
        <time>2019-03-27T15:36:05Z</time>
      </trkpt>
      <trkpt lat="43.50996" lon="6.31649">
        <ele>311.8</ele>
        <time>2019-03-27T15:36:15Z</time>
      </trkpt>
      <trkpt lat="43.50995" lon="6.31662">
        <ele>312.5</ele>
        <time>2019-03-27T15:36:24Z</time>
      </trkpt>
      <trkpt lat="43.50998" lon="6.31675">
        <ele>313</ele>
        <time>2019-03-27T15:36:34Z</time>
      </trkpt>
      <trkpt lat="43.50999" lon="6.31688">
        <ele>313.6</ele>
        <time>2019-03-27T15:36:45Z</time>
      </trkpt>
      <trkpt lat="43.51001" lon="6.317">
        <ele>314</ele>
        <time>2019-03-27T15:36:53Z</time>
      </trkpt>
      <trkpt lat="43.51002" lon="6.31713">
        <ele>314.2</ele>
        <time>2019-03-27T15:37:01Z</time>
      </trkpt>
      <trkpt lat="43.51004" lon="6.31726">
        <ele>314.7</ele>
        <time>2019-03-27T15:37:10Z</time>
      </trkpt>
      <trkpt lat="43.51004" lon="6.3174">
        <ele>315.2</ele>
        <time>2019-03-27T15:37:20Z</time>
      </trkpt>
      <trkpt lat="43.51001" lon="6.31753">
        <ele>316.2</ele>
        <time>2019-03-27T15:37:29Z</time>
      </trkpt>
      <trkpt lat="43.51001" lon="6.31766">
        <ele>317</ele>
        <time>2019-03-27T15:37:40Z</time>
      </trkpt>
      <trkpt lat="43.50998" lon="6.31778">
        <ele>317.3</ele>
        <time>2019-03-27T15:37:47Z</time>
      </trkpt>
      <trkpt lat="43.50997" lon="6.31791">
        <ele>317.8</ele>
        <time>2019-03-27T15:37:57Z</time>
      </trkpt>
      <trkpt lat="43.50995" lon="6.31803">
        <ele>318.2</ele>
        <time>2019-03-27T15:38:06Z</time>
      </trkpt>
      <trkpt lat="43.50995" lon="6.31817">
        <ele>318.5</ele>
        <time>2019-03-27T15:38:16Z</time>
      </trkpt>
      <trkpt lat="43.50995" lon="6.3183">
        <ele>318.6</ele>
        <time>2019-03-27T15:38:23Z</time>
      </trkpt>
      <trkpt lat="43.50992" lon="6.31842">
        <ele>318.9</ele>
        <time>2019-03-27T15:38:31Z</time>
      </trkpt>
      <trkpt lat="43.50991" lon="6.31854">
        <ele>318.7</ele>
        <time>2019-03-27T15:38:40Z</time>
      </trkpt>
      <trkpt lat="43.50992" lon="6.31867">
        <ele>318.7</ele>
        <time>2019-03-27T15:38:47Z</time>
      </trkpt>
      <trkpt lat="43.5099" lon="6.3188">
        <ele>318.7</ele>
        <time>2019-03-27T15:38:54Z</time>
      </trkpt>
      <trkpt lat="43.50988" lon="6.31893">
        <ele>318.9</ele>
        <time>2019-03-27T15:39:03Z</time>
      </trkpt>
      <trkpt lat="43.50986" lon="6.31906">
        <ele>318.8</ele>
        <time>2019-03-27T15:39:12Z</time>
      </trkpt>
      <trkpt lat="43.50987" lon="6.31919">
        <ele>318.8</ele>
        <time>2019-03-27T15:39:22Z</time>
      </trkpt>
      <trkpt lat="43.50985" lon="6.31932">
        <ele>318.8</ele>
        <time>2019-03-27T15:39:28Z</time>
      </trkpt>
      <trkpt lat="43.50986" lon="6.31945">
        <ele>318.6</ele>
        <time>2019-03-27T15:39:38Z</time>
      </trkpt>
      <trkpt lat="43.50992" lon="6.31956">
        <ele>318.1</ele>
        <time>2019-03-27T15:39:47Z</time>
      </trkpt>
      <trkpt lat="43.50997" lon="6.31966">
        <ele>317.7</ele>
        <time>2019-03-27T15:39:57Z</time>
      </trkpt>
      <trkpt lat="43.51002" lon="6.31977">
        <ele>317.9</ele>
        <time>2019-03-27T15:40:06Z</time>
      </trkpt>
      <trkpt lat="43.51008" lon="6.31987">
        <ele>318.1</ele>
        <time>2019-03-27T15:40:15Z</time>
      </trkpt>
      <trkpt lat="43.51015" lon="6.31998">
        <ele>318.2</ele>
        <time>2019-03-27T15:40:21Z</time>
      </trkpt>
      <trkpt lat="43.5102" lon="6.32009">
        <ele>318.5</ele>
        <time>2019-03-27T15:40:30Z</time>
      </trkpt>
      <trkpt lat="43.51022" lon="6.32022">
        <ele>318.8</ele>
        <time>2019-03-27T15:40:38Z</time>
      </trkpt>
      <trkpt lat="43.51025" lon="6.32034">
        <ele>319.2</ele>
        <time>2019-03-27T15:40:47Z</time>
      </trkpt>
      <trkpt lat="43.51029" lon="6.32046">
        <ele>319.6</ele>
        <time>2019-03-27T15:40:56Z</time>
      </trkpt>
      <trkpt lat="43.51035" lon="6.32056">
        <ele>319.9</ele>
        <time>2019-03-27T15:41:07Z</time>
      </trkpt>
      <trkpt lat="43.51039" lon="6.32067">
        <ele>320.1</ele>
        <time>2019-03-27T15:41:17Z</time>
      </trkpt>
      <trkpt lat="43.51044" lon="6.32079">
        <ele>320.5</ele>
        <time>2019-03-27T15:41:27Z</time>
      </trkpt>
      <trkpt lat="43.5105" lon="6.3209">
        <ele>320.6</ele>
        <time>2019-03-27T15:41:33Z</time>
      </trkpt>
      <trkpt lat="43.51057" lon="6.32098">
        <ele>320.9</ele>
        <time>2019-03-27T15:41:41Z</time>
      </trkpt>
      <trkpt lat="43.51064" lon="6.32107">
        <ele>321.2</ele>
        <time>2019-03-27T15:41:49Z</time>
      </trkpt>
      <trkpt lat="43.51068" lon="6.32118">
        <ele>321.3</ele>
        <time>2019-03-27T15:41:59Z</time>
      </trkpt>
      <trkpt lat="43.51072" lon="6.32129">
        <ele>321.2</ele>
        <time>2019-03-27T15:42:08Z</time>
      </trkpt>
      <trkpt lat="43.51076" lon="6.32141">
        <ele>321</ele>
        <time>2019-03-27T15:42:16Z</time>
      </trkpt>
      <trkpt lat="43.5108" lon="6.32153">
        <ele>320.6</ele>
        <time>2019-03-27T15:42:23Z</time>
      </trkpt>
      <trkpt lat="43.51087" lon="6.32162">
        <ele>320.3</ele>
        <time>2019-03-27T15:42:31Z</time>
      </trkpt>
      <trkpt lat="43.51092" lon="6.32172">
        <ele>319.5</ele>
        <time>2019-03-27T15:43:02Z</time>
      </trkpt>
      <trkpt lat="43.51099" lon="6.32179">
        <ele>318.9</ele>
        <time>2019-03-27T15:43:22Z</time>
      </trkpt>
      <trkpt lat="43.51109" lon="6.32179">
        <ele>318.2</ele>
        <time>2019-03-27T15:43:47Z</time>
      </trkpt>
      <trkpt lat="43.51119" lon="6.32179">
        <ele>318.2</ele>
        <time>2019-03-27T15:43:54Z</time>
      </trkpt>
      <trkpt lat="43.51128" lon="6.32178">
        <ele>318</ele>
        <time>2019-03-27T15:44:04Z</time>
      </trkpt>
      <trkpt lat="43.51137" lon="6.32174">
        <ele>318</ele>
        <time>2019-03-27T15:44:12Z</time>
      </trkpt>
      <trkpt lat="43.51145" lon="6.32168">
        <ele>318.3</ele>
        <time>2019-03-27T15:44:23Z</time>
      </trkpt>
      <trkpt lat="43.51157" lon="6.32165">
        <ele>319.2</ele>
        <time>2019-03-27T15:45:19Z</time>
      </trkpt>
      <trkpt lat="43.51165" lon="6.32168">
        <ele>320</ele>
        <time>2019-03-27T15:45:35Z</time>
      </trkpt>
      <trkpt lat="43.51174" lon="6.32172">
        <ele>320.2</ele>
        <time>2019-03-27T15:45:52Z</time>
      </trkpt>
      <trkpt lat="43.51184" lon="6.32168">
        <ele>321.4</ele>
        <time>2019-03-27T15:46:06Z</time>
      </trkpt>
      <trkpt lat="43.51193" lon="6.32166">
        <ele>322.7</ele>
        <time>2019-03-27T15:46:15Z</time>
      </trkpt>
      <trkpt lat="43.51202" lon="6.32161">
        <ele>323.6</ele>
        <time>2019-03-27T15:46:24Z</time>
      </trkpt>
      <trkpt lat="43.51212" lon="6.32159">
        <ele>324.1</ele>
        <time>2019-03-27T15:46:28Z</time>
      </trkpt>
      <trkpt lat="43.51221" lon="6.32158">
        <ele>325.5</ele>
        <time>2019-03-27T15:46:40Z</time>
      </trkpt>
      <trkpt lat="43.51231" lon="6.32157">
        <ele>326.3</ele>
        <time>2019-03-27T15:46:49Z</time>
      </trkpt>
      <trkpt lat="43.5124" lon="6.32154">
        <ele>327.7</ele>
        <time>2019-03-27T15:47:03Z</time>
      </trkpt>
      <trkpt lat="43.51249" lon="6.32153">
        <ele>328.3</ele>
        <time>2019-03-27T15:47:13Z</time>
      </trkpt>
      <trkpt lat="43.51258" lon="6.32153">
        <ele>329.1</ele>
        <time>2019-03-27T15:47:22Z</time>
      </trkpt>
      <trkpt lat="43.51267" lon="6.32153">
        <ele>330.2</ele>
        <time>2019-03-27T15:47:33Z</time>
      </trkpt>
      <trkpt lat="43.51282" lon="6.32148">
        <ele>331</ele>
        <time>2019-03-27T15:49:53Z</time>
      </trkpt>
      <trkpt lat="43.51283" lon="6.3216">
        <ele>330.8</ele>
        <time>2019-03-27T15:50:04Z</time>
      </trkpt>
      <trkpt lat="43.51286" lon="6.32173">
        <ele>330.7</ele>
        <time>2019-03-27T15:50:12Z</time>
      </trkpt>
      <trkpt lat="43.51289" lon="6.32186">
        <ele>330.4</ele>
        <time>2019-03-27T15:50:23Z</time>
      </trkpt>
      <trkpt lat="43.51288" lon="6.32199">
        <ele>330.2</ele>
        <time>2019-03-27T15:50:33Z</time>
      </trkpt>
      <trkpt lat="43.5129" lon="6.32212">
        <ele>329.9</ele>
        <time>2019-03-27T15:50:44Z</time>
      </trkpt>
      <trkpt lat="43.51294" lon="6.32223">
        <ele>329.1</ele>
        <time>2019-03-27T15:50:54Z</time>
      </trkpt>
      <trkpt lat="43.51297" lon="6.32236">
        <ele>328.1</ele>
        <time>2019-03-27T15:51:06Z</time>
      </trkpt>
      <trkpt lat="43.51299" lon="6.32248">
        <ele>327.5</ele>
        <time>2019-03-27T15:51:16Z</time>
      </trkpt>
      <trkpt lat="43.513" lon="6.32261">
        <ele>326.9</ele>
        <time>2019-03-27T15:51:30Z</time>
      </trkpt>
      <trkpt lat="43.51303" lon="6.32275">
        <ele>326.8</ele>
        <time>2019-03-27T15:51:36Z</time>
      </trkpt>
      <trkpt lat="43.51303" lon="6.32288">
        <ele>326.6</ele>
        <time>2019-03-27T15:51:43Z</time>
      </trkpt>
      <trkpt lat="43.51308" lon="6.32299">
        <ele>326.3</ele>
        <time>2019-03-27T15:51:59Z</time>
      </trkpt>
      <trkpt lat="43.51299" lon="6.32305">
        <ele>324</ele>
        <time>2019-03-27T15:52:33Z</time>
      </trkpt>
      <trkpt lat="43.51297" lon="6.32317">
        <ele>322.7</ele>
        <time>2019-03-27T15:52:52Z</time>
      </trkpt>
      <trkpt lat="43.51298" lon="6.32334">
        <ele>320</ele>
        <time>2019-03-27T15:53:54Z</time>
      </trkpt>
      <trkpt lat="43.51307" lon="6.3234">
        <ele>328.3</ele>
        <time>2019-03-27T15:56:59Z</time>
      </trkpt>
      <trkpt lat="43.51325" lon="6.32347">
        <ele>328</ele>
        <time>2019-03-27T15:57:07Z</time>
      </trkpt>
      <trkpt lat="43.51332" lon="6.32356">
        <ele>329.4</ele>
        <time>2019-03-27T15:57:15Z</time>
      </trkpt>
      <trkpt lat="43.51341" lon="6.32358">
        <ele>329.7</ele>
        <time>2019-03-27T15:57:22Z</time>
      </trkpt>
      <trkpt lat="43.51351" lon="6.32358">
        <ele>330</ele>
        <time>2019-03-27T15:57:31Z</time>
      </trkpt>
      <trkpt lat="43.5136" lon="6.32358">
        <ele>330.4</ele>
        <time>2019-03-27T15:57:40Z</time>
      </trkpt>
      <trkpt lat="43.51368" lon="6.3235">
        <ele>330.7</ele>
        <time>2019-03-27T15:57:50Z</time>
      </trkpt>
      <trkpt lat="43.51377" lon="6.32347">
        <ele>331.3</ele>
        <time>2019-03-27T15:57:58Z</time>
      </trkpt>
      <trkpt lat="43.51386" lon="6.32343">
        <ele>331.5</ele>
        <time>2019-03-27T15:58:04Z</time>
      </trkpt>
      <trkpt lat="43.51395" lon="6.3234">
        <ele>331.8</ele>
        <time>2019-03-27T15:58:12Z</time>
      </trkpt>
      <trkpt lat="43.51404" lon="6.3234">
        <ele>332.1</ele>
        <time>2019-03-27T15:58:18Z</time>
      </trkpt>
      <trkpt lat="43.51413" lon="6.32333">
        <ele>332.7</ele>
        <time>2019-03-27T15:58:28Z</time>
      </trkpt>
      <trkpt lat="43.51425" lon="6.32335">
        <ele>333</ele>
        <time>2019-03-27T15:58:36Z</time>
      </trkpt>
      <trkpt lat="43.51436" lon="6.32341">
        <ele>333.1</ele>
        <time>2019-03-27T15:58:40Z</time>
      </trkpt>
      <trkpt lat="43.51445" lon="6.32345">
        <ele>333.5</ele>
        <time>2019-03-27T15:58:44Z</time>
      </trkpt>
      <trkpt lat="43.51456" lon="6.3235">
        <ele>333.6</ele>
        <time>2019-03-27T15:58:47Z</time>
      </trkpt>
      <trkpt lat="43.51466" lon="6.32357">
        <ele>333.8</ele>
        <time>2019-03-27T15:58:50Z</time>
      </trkpt>
      <trkpt lat="43.51477" lon="6.32362">
        <ele>333.8</ele>
        <time>2019-03-27T15:58:54Z</time>
      </trkpt>
      <trkpt lat="43.51485" lon="6.32367">
        <ele>333.9</ele>
        <time>2019-03-27T15:58:57Z</time>
      </trkpt>
      <trkpt lat="43.51497" lon="6.32374">
        <ele>334.1</ele>
        <time>2019-03-27T15:59:02Z</time>
      </trkpt>
      <trkpt lat="43.51505" lon="6.32381">
        <ele>334.2</ele>
        <time>2019-03-27T15:59:06Z</time>
      </trkpt>
      <trkpt lat="43.51514" lon="6.32389">
        <ele>334.3</ele>
        <time>2019-03-27T15:59:10Z</time>
      </trkpt>
      <trkpt lat="43.51523" lon="6.32396">
        <ele>334.4</ele>
        <time>2019-03-27T15:59:16Z</time>
      </trkpt>
      <trkpt lat="43.51531" lon="6.32401">
        <ele>334.4</ele>
        <time>2019-03-27T15:59:20Z</time>
      </trkpt>
      <trkpt lat="43.51543" lon="6.32408">
        <ele>334.6</ele>
        <time>2019-03-27T15:59:25Z</time>
      </trkpt>
      <trkpt lat="43.51552" lon="6.32413">
        <ele>334.7</ele>
        <time>2019-03-27T15:59:30Z</time>
      </trkpt>
      <trkpt lat="43.5156" lon="6.3242">
        <ele>334.8</ele>
        <time>2019-03-27T15:59:33Z</time>
      </trkpt>
      <trkpt lat="43.5157" lon="6.32424">
        <ele>334.9</ele>
        <time>2019-03-27T15:59:37Z</time>
      </trkpt>
      <trkpt lat="43.5158" lon="6.32427">
        <ele>335.1</ele>
        <time>2019-03-27T15:59:44Z</time>
      </trkpt>
      <trkpt lat="43.51589" lon="6.32432">
        <ele>335.6</ele>
        <time>2019-03-27T15:59:52Z</time>
      </trkpt>
      <trkpt lat="43.51599" lon="6.32437">
        <ele>335.6</ele>
        <time>2019-03-27T15:59:59Z</time>
      </trkpt>
      <trkpt lat="43.51608" lon="6.3244">
        <ele>335.4</ele>
        <time>2019-03-27T16:00:06Z</time>
      </trkpt>
      <trkpt lat="43.51618" lon="6.32443">
        <ele>335.2</ele>
        <time>2019-03-27T16:00:12Z</time>
      </trkpt>
      <trkpt lat="43.51627" lon="6.32446">
        <ele>335.3</ele>
        <time>2019-03-27T16:00:19Z</time>
      </trkpt>
      <trkpt lat="43.51637" lon="6.3245">
        <ele>335.1</ele>
        <time>2019-03-27T16:00:26Z</time>
      </trkpt>
      <trkpt lat="43.51646" lon="6.32454">
        <ele>335.3</ele>
        <time>2019-03-27T16:00:33Z</time>
      </trkpt>
      <trkpt lat="43.51655" lon="6.3246">
        <ele>335.4</ele>
        <time>2019-03-27T16:00:40Z</time>
      </trkpt>
      <trkpt lat="43.51662" lon="6.32469">
        <ele>335.3</ele>
        <time>2019-03-27T16:00:48Z</time>
      </trkpt>
      <trkpt lat="43.51669" lon="6.32478">
        <ele>335.3</ele>
        <time>2019-03-27T16:00:55Z</time>
      </trkpt>
      <trkpt lat="43.51675" lon="6.32488">
        <ele>335.4</ele>
        <time>2019-03-27T16:01:02Z</time>
      </trkpt>
      <trkpt lat="43.51679" lon="6.32499">
        <ele>335.9</ele>
        <time>2019-03-27T16:01:09Z</time>
      </trkpt>
      <trkpt lat="43.51685" lon="6.3251">
        <ele>336.4</ele>
        <time>2019-03-27T16:01:16Z</time>
      </trkpt>
      <trkpt lat="43.5169" lon="6.32522">
        <ele>336.6</ele>
        <time>2019-03-27T16:01:24Z</time>
      </trkpt>
      <trkpt lat="43.51696" lon="6.32533">
        <ele>336.7</ele>
        <time>2019-03-27T16:01:33Z</time>
      </trkpt>
      <trkpt lat="43.517" lon="6.32547">
        <ele>336.8</ele>
        <time>2019-03-27T16:01:41Z</time>
      </trkpt>
      <trkpt lat="43.51701" lon="6.32559">
        <ele>337.1</ele>
        <time>2019-03-27T16:01:53Z</time>
      </trkpt>
      <trkpt lat="43.51709" lon="6.32566">
        <ele>337.2</ele>
        <time>2019-03-27T16:02:24Z</time>
      </trkpt>
      <trkpt lat="43.51716" lon="6.32575">
        <ele>336.2</ele>
        <time>2019-03-27T16:03:43Z</time>
      </trkpt>
      <trkpt lat="43.51721" lon="6.32597">
        <ele>336</ele>
        <time>2019-03-27T16:03:55Z</time>
      </trkpt>
      <trkpt lat="43.51721" lon="6.32598">
        <ele>333.4</ele>
        <time>2019-03-27T16:06:16Z</time>
      </trkpt>
    </trkseg>
  </trk>
</gpx>